<?xml version="1.0" encoding="UTF-8" standalone="no" ?>
<gpx xmlns="http://www.topografix.com/GPX/1/1" xmlns:xsi="http://www.w3.org/2001/XMLSchema-instance" xsi:schemaLocation="http://www.topografix.com/GPX/1/1 http://www.topografix.com/GPX/1/1/gpx.xsd" version="1.1" creator="VisuGPX - https://www.visugpx.com">
  <metadata>
    <name>Frontignan</name>
    <desc><![CDATA[Faite le 27 avril 2022]]></desc>
  </metadata>
  <trk>
    <name><![CDATA[2022-04-27 11:08]]></name>
    <extensions>
      <line xmlns="http://www.topografix.com/GPX/gpx_style/0/2">
        <color>FF0000</color>
        <opacity>0.78</opacity>
        <width>3</width>
      </line>
    </extensions>
    <trkseg>
      <trkpt lat="43.45864" lon="3.75567">
        <ele>36.74</ele>
        <time>2022-04-27T09:08:47.000Z</time>
      </trkpt>
      <trkpt lat="43.45865" lon="3.75567">
        <ele>37.68</ele>
        <time>2022-04-27T09:09:09.000Z</time>
      </trkpt>
      <trkpt lat="43.45869" lon="3.75567">
        <ele>38.74</ele>
        <time>2022-04-27T09:09:19.000Z</time>
      </trkpt>
      <trkpt lat="43.4587" lon="3.75567">
        <ele>36.81</ele>
        <time>2022-04-27T09:09:35.000Z</time>
      </trkpt>
      <trkpt lat="43.45873" lon="3.75567">
        <ele>34.74</ele>
        <time>2022-04-27T09:09:45.000Z</time>
      </trkpt>
      <trkpt lat="43.45871" lon="3.75568">
        <ele>35.68</ele>
        <time>2022-04-27T09:10:17.000Z</time>
      </trkpt>
      <trkpt lat="43.45869" lon="3.75569">
        <ele>35.74</ele>
        <time>2022-04-27T09:10:27.000Z</time>
      </trkpt>
      <trkpt lat="43.45871" lon="3.7557">
        <ele>34.99</ele>
        <time>2022-04-27T09:11:04.000Z</time>
      </trkpt>
      <trkpt lat="43.45873" lon="3.75572">
        <ele>33.74</ele>
        <time>2022-04-27T09:11:14.000Z</time>
      </trkpt>
      <trkpt lat="43.45876" lon="3.75574">
        <ele>33</ele>
        <time>2022-04-27T09:11:24.000Z</time>
      </trkpt>
      <trkpt lat="43.45881" lon="3.75582">
        <ele>30.74</ele>
        <time>2022-04-27T09:11:33.324Z</time>
      </trkpt>
      <trkpt lat="43.45886" lon="3.75591">
        <ele>29.73</ele>
        <time>2022-04-27T09:11:42.884Z</time>
      </trkpt>
      <trkpt lat="43.45896" lon="3.75595">
        <ele>30.74</ele>
        <time>2022-04-27T09:11:51.984Z</time>
      </trkpt>
      <trkpt lat="43.45905" lon="3.75596">
        <ele>30.76</ele>
        <time>2022-04-27T09:12:01.687Z</time>
      </trkpt>
      <trkpt lat="43.45912" lon="3.75599">
        <ele>31.73</ele>
        <time>2022-04-27T09:12:10.804Z</time>
      </trkpt>
      <trkpt lat="43.45921" lon="3.75603">
        <ele>31.74</ele>
        <time>2022-04-27T09:12:20.344Z</time>
      </trkpt>
      <trkpt lat="43.45931" lon="3.75606">
        <ele>32.69</ele>
        <time>2022-04-27T09:12:30.023Z</time>
      </trkpt>
      <trkpt lat="43.45941" lon="3.75606">
        <ele>32.74</ele>
        <time>2022-04-27T09:12:40.000Z</time>
      </trkpt>
      <trkpt lat="43.45945" lon="3.75599">
        <ele>33.68</ele>
        <time>2022-04-27T09:12:49.005Z</time>
      </trkpt>
      <trkpt lat="43.45952" lon="3.75588">
        <ele>35.68</ele>
        <time>2022-04-27T09:12:58.692Z</time>
      </trkpt>
      <trkpt lat="43.45959" lon="3.75576">
        <ele>35</ele>
        <time>2022-04-27T09:13:07.867Z</time>
      </trkpt>
      <trkpt lat="43.45965" lon="3.75561">
        <ele>34.74</ele>
        <time>2022-04-27T09:13:17.805Z</time>
      </trkpt>
      <trkpt lat="43.45966" lon="3.75551">
        <ele>37.74</ele>
        <time>2022-04-27T09:13:26.946Z</time>
      </trkpt>
      <trkpt lat="43.45967" lon="3.75539">
        <ele>37.74</ele>
        <time>2022-04-27T09:13:36.384Z</time>
      </trkpt>
      <trkpt lat="43.45969" lon="3.75526">
        <ele>41.6</ele>
        <time>2022-04-27T09:13:45.642Z</time>
      </trkpt>
      <trkpt lat="43.45973" lon="3.75512">
        <ele>42.74</ele>
        <time>2022-04-27T09:13:55.062Z</time>
      </trkpt>
      <trkpt lat="43.45976" lon="3.75506">
        <ele>41.75</ele>
        <time>2022-04-27T09:14:05.000Z</time>
      </trkpt>
      <trkpt lat="43.45981" lon="3.75502">
        <ele>40.81</ele>
        <time>2022-04-27T09:14:14.062Z</time>
      </trkpt>
      <trkpt lat="43.45992" lon="3.75496">
        <ele>35.75</ele>
        <time>2022-04-27T09:14:24.000Z</time>
      </trkpt>
      <trkpt lat="43.45993" lon="3.75495">
        <ele>34.75</ele>
        <time>2022-04-27T09:14:37.000Z</time>
      </trkpt>
      <trkpt lat="43.45995" lon="3.75495">
        <ele>33.74</ele>
        <time>2022-04-27T09:14:47.000Z</time>
      </trkpt>
      <trkpt lat="43.46003" lon="3.75493">
        <ele>32.81</ele>
        <time>2022-04-27T09:14:56.763Z</time>
      </trkpt>
      <trkpt lat="43.46016" lon="3.75492">
        <ele>30.74</ele>
        <time>2022-04-27T09:15:06.743Z</time>
      </trkpt>
      <trkpt lat="43.4603" lon="3.75493">
        <ele>29</ele>
        <time>2022-04-27T09:15:16.803Z</time>
      </trkpt>
      <trkpt lat="43.4604" lon="3.75499">
        <ele>27.74</ele>
        <time>2022-04-27T09:15:26.005Z</time>
      </trkpt>
      <trkpt lat="43.4605" lon="3.75507">
        <ele>26.98</ele>
        <time>2022-04-27T09:15:35.693Z</time>
      </trkpt>
      <trkpt lat="43.46059" lon="3.75514">
        <ele>26.73</ele>
        <time>2022-04-27T09:15:44.701Z</time>
      </trkpt>
      <trkpt lat="43.46071" lon="3.75518">
        <ele>27.73</ele>
        <time>2022-04-27T09:15:54.000Z</time>
      </trkpt>
      <trkpt lat="43.46082" lon="3.75524">
        <ele>27.51</ele>
        <time>2022-04-27T09:16:03.681Z</time>
      </trkpt>
      <trkpt lat="43.46092" lon="3.7553">
        <ele>25.8</ele>
        <time>2022-04-27T09:16:12.683Z</time>
      </trkpt>
      <trkpt lat="43.46101" lon="3.75537">
        <ele>25.74</ele>
        <time>2022-04-27T09:16:21.743Z</time>
      </trkpt>
      <trkpt lat="43.4611" lon="3.75545">
        <ele>23.74</ele>
        <time>2022-04-27T09:16:31.243Z</time>
      </trkpt>
      <trkpt lat="43.46121" lon="3.75551">
        <ele>24.74</ele>
        <time>2022-04-27T09:16:40.823Z</time>
      </trkpt>
      <trkpt lat="43.46131" lon="3.75559">
        <ele>25.49</ele>
        <time>2022-04-27T09:16:49.914Z</time>
      </trkpt>
      <trkpt lat="43.4614" lon="3.75564">
        <ele>25.73</ele>
        <time>2022-04-27T09:16:59.062Z</time>
      </trkpt>
      <trkpt lat="43.46145" lon="3.75569">
        <ele>27.74</ele>
        <time>2022-04-27T09:17:09.000Z</time>
      </trkpt>
      <trkpt lat="43.46154" lon="3.75577">
        <ele>28.73</ele>
        <time>2022-04-27T09:17:18.605Z</time>
      </trkpt>
      <trkpt lat="43.46164" lon="3.75578">
        <ele>29.74</ele>
        <time>2022-04-27T09:17:27.922Z</time>
      </trkpt>
      <trkpt lat="43.46174" lon="3.75582">
        <ele>30.74</ele>
        <time>2022-04-27T09:17:37.000Z</time>
      </trkpt>
      <trkpt lat="43.46179" lon="3.75584">
        <ele>30.74</ele>
        <time>2022-04-27T09:17:47.000Z</time>
      </trkpt>
      <trkpt lat="43.46185" lon="3.75586">
        <ele>30.74</ele>
        <time>2022-04-27T09:17:56.883Z</time>
      </trkpt>
      <trkpt lat="43.46193" lon="3.75584">
        <ele>32.68</ele>
        <time>2022-04-27T09:18:06.000Z</time>
      </trkpt>
      <trkpt lat="43.46202" lon="3.75579">
        <ele>33.51</ele>
        <time>2022-04-27T09:18:16.000Z</time>
      </trkpt>
      <trkpt lat="43.46211" lon="3.75575">
        <ele>34.74</ele>
        <time>2022-04-27T09:18:25.383Z</time>
      </trkpt>
      <trkpt lat="43.46218" lon="3.75572">
        <ele>36.74</ele>
        <time>2022-04-27T09:18:34.824Z</time>
      </trkpt>
      <trkpt lat="43.46223" lon="3.75566">
        <ele>38.68</ele>
        <time>2022-04-27T09:18:44.082Z</time>
      </trkpt>
      <trkpt lat="43.4623" lon="3.75562">
        <ele>38.74</ele>
        <time>2022-04-27T09:18:53.741Z</time>
      </trkpt>
      <trkpt lat="43.46239" lon="3.75558">
        <ele>37.74</ele>
        <time>2022-04-27T09:19:03.083Z</time>
      </trkpt>
      <trkpt lat="43.46248" lon="3.75556">
        <ele>37.74</ele>
        <time>2022-04-27T09:19:12.385Z</time>
      </trkpt>
      <trkpt lat="43.46255" lon="3.75554">
        <ele>39.44</ele>
        <time>2022-04-27T09:19:21.824Z</time>
      </trkpt>
      <trkpt lat="43.46263" lon="3.75551">
        <ele>39.74</ele>
        <time>2022-04-27T09:19:30.945Z</time>
      </trkpt>
      <trkpt lat="43.4627" lon="3.75549">
        <ele>40.62</ele>
        <time>2022-04-27T09:19:40.000Z</time>
      </trkpt>
      <trkpt lat="43.46275" lon="3.75551">
        <ele>40.99</ele>
        <time>2022-04-27T09:19:50.000Z</time>
      </trkpt>
      <trkpt lat="43.46282" lon="3.75553">
        <ele>38.99</ele>
        <time>2022-04-27T09:19:59.544Z</time>
      </trkpt>
      <trkpt lat="43.46286" lon="3.75555">
        <ele>39.74</ele>
        <time>2022-04-27T09:20:08.721Z</time>
      </trkpt>
      <trkpt lat="43.46289" lon="3.75555">
        <ele>38.74</ele>
        <time>2022-04-27T09:20:18.603Z</time>
      </trkpt>
      <trkpt lat="43.4629" lon="3.75554">
        <ele>39.74</ele>
        <time>2022-04-27T09:20:28.000Z</time>
      </trkpt>
      <trkpt lat="43.46291" lon="3.75554">
        <ele>40.72</ele>
        <time>2022-04-27T09:20:38.000Z</time>
      </trkpt>
      <trkpt lat="43.46292" lon="3.75554">
        <ele>40.74</ele>
        <time>2022-04-27T09:20:48.000Z</time>
      </trkpt>
      <trkpt lat="43.46293" lon="3.75556">
        <ele>40.74</ele>
        <time>2022-04-27T09:21:12.384Z</time>
      </trkpt>
      <trkpt lat="43.46293" lon="3.7556">
        <ele>38.74</ele>
        <time>2022-04-27T09:21:21.984Z</time>
      </trkpt>
      <trkpt lat="43.46298" lon="3.75573">
        <ele>37.49</ele>
        <time>2022-04-27T09:21:31.000Z</time>
      </trkpt>
      <trkpt lat="43.46303" lon="3.75582">
        <ele>36.74</ele>
        <time>2022-04-27T09:21:40.403Z</time>
      </trkpt>
      <trkpt lat="43.46312" lon="3.75587">
        <ele>34.5</ele>
        <time>2022-04-27T09:21:50.000Z</time>
      </trkpt>
      <trkpt lat="43.46318" lon="3.75593">
        <ele>32.99</ele>
        <time>2022-04-27T09:21:59.582Z</time>
      </trkpt>
      <trkpt lat="43.46322" lon="3.75594">
        <ele>32.74</ele>
        <time>2022-04-27T09:22:09.000Z</time>
      </trkpt>
      <trkpt lat="43.4633" lon="3.75595">
        <ele>31.8</ele>
        <time>2022-04-27T09:22:18.804Z</time>
      </trkpt>
      <trkpt lat="43.4634" lon="3.75599">
        <ele>31.74</ele>
        <time>2022-04-27T09:22:27.903Z</time>
      </trkpt>
      <trkpt lat="43.4635" lon="3.75604">
        <ele>30.74</ele>
        <time>2022-04-27T09:22:36.985Z</time>
      </trkpt>
      <trkpt lat="43.46344" lon="3.75597">
        <ele>33.74</ele>
        <time>2022-04-27T09:22:46.443Z</time>
      </trkpt>
      <trkpt lat="43.46354" lon="3.75609">
        <ele>32.73</ele>
        <time>2022-04-27T09:22:55.982Z</time>
      </trkpt>
      <trkpt lat="43.46363" lon="3.75617">
        <ele>31.74</ele>
        <time>2022-04-27T09:23:05.402Z</time>
      </trkpt>
      <trkpt lat="43.46366" lon="3.75626">
        <ele>31.74</ele>
        <time>2022-04-27T09:23:14.674Z</time>
      </trkpt>
      <trkpt lat="43.46367" lon="3.75637">
        <ele>33.74</ele>
        <time>2022-04-27T09:23:23.845Z</time>
      </trkpt>
      <trkpt lat="43.46368" lon="3.75649">
        <ele>32.74</ele>
        <time>2022-04-27T09:23:33.325Z</time>
      </trkpt>
      <trkpt lat="43.46368" lon="3.75663">
        <ele>30.99</ele>
        <time>2022-04-27T09:23:43.000Z</time>
      </trkpt>
      <trkpt lat="43.46373" lon="3.75677">
        <ele>30.99</ele>
        <time>2022-04-27T09:23:53.000Z</time>
      </trkpt>
      <trkpt lat="43.46384" lon="3.75683">
        <ele>28.74</ele>
        <time>2022-04-27T09:24:02.444Z</time>
      </trkpt>
      <trkpt lat="43.46395" lon="3.75687">
        <ele>25.74</ele>
        <time>2022-04-27T09:24:12.525Z</time>
      </trkpt>
      <trkpt lat="43.46405" lon="3.75686">
        <ele>27.73</ele>
        <time>2022-04-27T09:24:21.625Z</time>
      </trkpt>
      <trkpt lat="43.46415" lon="3.75684">
        <ele>29.72</ele>
        <time>2022-04-27T09:24:30.722Z</time>
      </trkpt>
      <trkpt lat="43.46426" lon="3.75682">
        <ele>28.74</ele>
        <time>2022-04-27T09:24:40.763Z</time>
      </trkpt>
      <trkpt lat="43.46436" lon="3.75682">
        <ele>28.74</ele>
        <time>2022-04-27T09:24:50.844Z</time>
      </trkpt>
      <trkpt lat="43.46446" lon="3.75684">
        <ele>27.74</ele>
        <time>2022-04-27T09:25:00.000Z</time>
      </trkpt>
      <trkpt lat="43.46452" lon="3.75689">
        <ele>29.72</ele>
        <time>2022-04-27T09:25:09.485Z</time>
      </trkpt>
      <trkpt lat="43.46464" lon="3.75692">
        <ele>27.99</ele>
        <time>2022-04-27T09:25:19.000Z</time>
      </trkpt>
      <trkpt lat="43.46475" lon="3.75693">
        <ele>29.72</ele>
        <time>2022-04-27T09:25:28.691Z</time>
      </trkpt>
      <trkpt lat="43.46485" lon="3.75688">
        <ele>29.74</ele>
        <time>2022-04-27T09:25:37.944Z</time>
      </trkpt>
      <trkpt lat="43.46495" lon="3.75686">
        <ele>32.49</ele>
        <time>2022-04-27T09:25:47.323Z</time>
      </trkpt>
      <trkpt lat="43.46505" lon="3.75684">
        <ele>33.74</ele>
        <time>2022-04-27T09:25:56.743Z</time>
      </trkpt>
      <trkpt lat="43.46508" lon="3.75683">
        <ele>35.74</ele>
        <time>2022-04-27T09:26:05.963Z</time>
      </trkpt>
      <trkpt lat="43.46509" lon="3.75682">
        <ele>35.74</ele>
        <time>2022-04-27T09:26:37.000Z</time>
      </trkpt>
      <trkpt lat="43.4651" lon="3.75681">
        <ele>36.74</ele>
        <time>2022-04-27T09:26:47.000Z</time>
      </trkpt>
      <trkpt lat="43.4651" lon="3.75679">
        <ele>36.74</ele>
        <time>2022-04-27T09:27:14.000Z</time>
      </trkpt>
      <trkpt lat="43.46516" lon="3.75682">
        <ele>35.74</ele>
        <time>2022-04-27T09:27:23.943Z</time>
      </trkpt>
      <trkpt lat="43.46525" lon="3.7568">
        <ele>37.47</ele>
        <time>2022-04-27T09:27:33.000Z</time>
      </trkpt>
      <trkpt lat="43.46535" lon="3.75678">
        <ele>37.72</ele>
        <time>2022-04-27T09:27:42.703Z</time>
      </trkpt>
      <trkpt lat="43.46544" lon="3.75675">
        <ele>37.74</ele>
        <time>2022-04-27T09:27:52.000Z</time>
      </trkpt>
      <trkpt lat="43.46554" lon="3.7567">
        <ele>38.49</ele>
        <time>2022-04-27T09:28:01.283Z</time>
      </trkpt>
      <trkpt lat="43.46564" lon="3.75664">
        <ele>40.49</ele>
        <time>2022-04-27T09:28:10.703Z</time>
      </trkpt>
      <trkpt lat="43.46572" lon="3.75657">
        <ele>41.74</ele>
        <time>2022-04-27T09:28:19.723Z</time>
      </trkpt>
      <trkpt lat="43.4658" lon="3.75652">
        <ele>42.74</ele>
        <time>2022-04-27T09:28:29.000Z</time>
      </trkpt>
      <trkpt lat="43.46587" lon="3.75646">
        <ele>43.8</ele>
        <time>2022-04-27T09:28:39.000Z</time>
      </trkpt>
      <trkpt lat="43.46589" lon="3.75645">
        <ele>44.49</ele>
        <time>2022-04-27T09:28:53.043Z</time>
      </trkpt>
      <trkpt lat="43.46596" lon="3.75636">
        <ele>46.72</ele>
        <time>2022-04-27T09:29:02.564Z</time>
      </trkpt>
      <trkpt lat="43.46602" lon="3.75625">
        <ele>49.72</ele>
        <time>2022-04-27T09:29:12.000Z</time>
      </trkpt>
      <trkpt lat="43.46604" lon="3.75611">
        <ele>50.92</ele>
        <time>2022-04-27T09:29:21.564Z</time>
      </trkpt>
      <trkpt lat="43.46605" lon="3.75596">
        <ele>53.74</ele>
        <time>2022-04-27T09:29:31.000Z</time>
      </trkpt>
      <trkpt lat="43.46607" lon="3.75583">
        <ele>53.74</ele>
        <time>2022-04-27T09:29:40.703Z</time>
      </trkpt>
      <trkpt lat="43.46608" lon="3.75569">
        <ele>54.73</ele>
        <time>2022-04-27T09:29:50.000Z</time>
      </trkpt>
      <trkpt lat="43.46608" lon="3.75556">
        <ele>54.49</ele>
        <time>2022-04-27T09:29:59.722Z</time>
      </trkpt>
      <trkpt lat="43.46609" lon="3.75541">
        <ele>55.74</ele>
        <time>2022-04-27T09:30:09.306Z</time>
      </trkpt>
      <trkpt lat="43.4661" lon="3.75527">
        <ele>56.97</ele>
        <time>2022-04-27T09:30:19.000Z</time>
      </trkpt>
      <trkpt lat="43.46609" lon="3.75525">
        <ele>56.49</ele>
        <time>2022-04-27T09:30:33.905Z</time>
      </trkpt>
      <trkpt lat="43.46611" lon="3.75511">
        <ele>59.67</ele>
        <time>2022-04-27T09:30:43.000Z</time>
      </trkpt>
      <trkpt lat="43.46611" lon="3.75501">
        <ele>60.74</ele>
        <time>2022-04-27T09:30:53.000Z</time>
      </trkpt>
      <trkpt lat="43.46612" lon="3.7549">
        <ele>64.73</ele>
        <time>2022-04-27T09:31:02.225Z</time>
      </trkpt>
      <trkpt lat="43.46612" lon="3.75476">
        <ele>64.73</ele>
        <time>2022-04-27T09:31:11.925Z</time>
      </trkpt>
      <trkpt lat="43.46613" lon="3.75466">
        <ele>65.98</ele>
        <time>2022-04-27T09:31:21.000Z</time>
      </trkpt>
      <trkpt lat="43.46615" lon="3.75461">
        <ele>62.74</ele>
        <time>2022-04-27T09:31:31.000Z</time>
      </trkpt>
      <trkpt lat="43.46615" lon="3.75461">
        <ele>62.73</ele>
        <time>2022-04-27T09:31:41.000Z</time>
      </trkpt>
      <trkpt lat="43.46617" lon="3.75453">
        <ele>65.67</ele>
        <time>2022-04-27T09:31:50.702Z</time>
      </trkpt>
      <trkpt lat="43.46616" lon="3.75441">
        <ele>67.73</ele>
        <time>2022-04-27T09:32:00.000Z</time>
      </trkpt>
      <trkpt lat="43.46617" lon="3.75432">
        <ele>68.72</ele>
        <time>2022-04-27T09:32:09.384Z</time>
      </trkpt>
      <trkpt lat="43.46617" lon="3.75425">
        <ele>70.73</ele>
        <time>2022-04-27T09:32:18.983Z</time>
      </trkpt>
      <trkpt lat="43.4662" lon="3.75411">
        <ele>72.48</ele>
        <time>2022-04-27T09:32:28.843Z</time>
      </trkpt>
      <trkpt lat="43.46621" lon="3.75404">
        <ele>73.73</ele>
        <time>2022-04-27T09:32:38.000Z</time>
      </trkpt>
      <trkpt lat="43.46621" lon="3.75396">
        <ele>75.73</ele>
        <time>2022-04-27T09:32:47.563Z</time>
      </trkpt>
      <trkpt lat="43.46621" lon="3.7539">
        <ele>79.73</ele>
        <time>2022-04-27T09:32:56.743Z</time>
      </trkpt>
      <trkpt lat="43.46621" lon="3.7538">
        <ele>78.73</ele>
        <time>2022-04-27T09:33:06.000Z</time>
      </trkpt>
      <trkpt lat="43.46623" lon="3.75371">
        <ele>78.74</ele>
        <time>2022-04-27T09:33:16.043Z</time>
      </trkpt>
      <trkpt lat="43.46624" lon="3.75365">
        <ele>80.73</ele>
        <time>2022-04-27T09:33:25.543Z</time>
      </trkpt>
      <trkpt lat="43.46624" lon="3.75358">
        <ele>82.67</ele>
        <time>2022-04-27T09:33:35.000Z</time>
      </trkpt>
      <trkpt lat="43.46625" lon="3.75351">
        <ele>83.67</ele>
        <time>2022-04-27T09:33:45.000Z</time>
      </trkpt>
      <trkpt lat="43.46626" lon="3.75344">
        <ele>85.72</ele>
        <time>2022-04-27T09:33:55.000Z</time>
      </trkpt>
      <trkpt lat="43.46626" lon="3.75338">
        <ele>86.73</ele>
        <time>2022-04-27T09:34:05.062Z</time>
      </trkpt>
      <trkpt lat="43.46625" lon="3.7533">
        <ele>88.73</ele>
        <time>2022-04-27T09:34:14.463Z</time>
      </trkpt>
      <trkpt lat="43.46624" lon="3.75323">
        <ele>88.73</ele>
        <time>2022-04-27T09:34:24.000Z</time>
      </trkpt>
      <trkpt lat="43.46623" lon="3.75315">
        <ele>90.73</ele>
        <time>2022-04-27T09:34:34.004Z</time>
      </trkpt>
      <trkpt lat="43.46622" lon="3.75309">
        <ele>93.67</ele>
        <time>2022-04-27T09:34:43.503Z</time>
      </trkpt>
      <trkpt lat="43.46621" lon="3.75304">
        <ele>94.73</ele>
        <time>2022-04-27T09:34:53.000Z</time>
      </trkpt>
      <trkpt lat="43.46621" lon="3.75299">
        <ele>95.79</ele>
        <time>2022-04-27T09:35:03.083Z</time>
      </trkpt>
      <trkpt lat="43.4662" lon="3.75293">
        <ele>96.73</ele>
        <time>2022-04-27T09:35:13.000Z</time>
      </trkpt>
      <trkpt lat="43.4662" lon="3.75288">
        <ele>97.7</ele>
        <time>2022-04-27T09:35:22.742Z</time>
      </trkpt>
      <trkpt lat="43.46618" lon="3.75283">
        <ele>99.72</ele>
        <time>2022-04-27T09:35:32.026Z</time>
      </trkpt>
      <trkpt lat="43.46616" lon="3.75278">
        <ele>101.54</ele>
        <time>2022-04-27T09:35:41.688Z</time>
      </trkpt>
      <trkpt lat="43.46614" lon="3.75276">
        <ele>102.73</ele>
        <time>2022-04-27T09:35:51.002Z</time>
      </trkpt>
      <trkpt lat="43.46614" lon="3.75271">
        <ele>103.73</ele>
        <time>2022-04-27T09:36:00.624Z</time>
      </trkpt>
      <trkpt lat="43.46614" lon="3.75266">
        <ele>104.73</ele>
        <time>2022-04-27T09:36:09.762Z</time>
      </trkpt>
      <trkpt lat="43.46613" lon="3.75261">
        <ele>106.72</ele>
        <time>2022-04-27T09:36:18.945Z</time>
      </trkpt>
      <trkpt lat="43.46612" lon="3.75255">
        <ele>107.74</ele>
        <time>2022-04-27T09:36:28.000Z</time>
      </trkpt>
      <trkpt lat="43.46611" lon="3.75252">
        <ele>110.73</ele>
        <time>2022-04-27T09:36:38.063Z</time>
      </trkpt>
      <trkpt lat="43.4661" lon="3.75246">
        <ele>113.48</ele>
        <time>2022-04-27T09:36:47.923Z</time>
      </trkpt>
      <trkpt lat="43.46608" lon="3.7524">
        <ele>114.74</ele>
        <time>2022-04-27T09:36:57.484Z</time>
      </trkpt>
      <trkpt lat="43.46608" lon="3.75233">
        <ele>116.78</ele>
        <time>2022-04-27T09:37:07.000Z</time>
      </trkpt>
      <trkpt lat="43.46609" lon="3.75229">
        <ele>115.8</ele>
        <time>2022-04-27T09:37:16.673Z</time>
      </trkpt>
      <trkpt lat="43.46607" lon="3.75228">
        <ele>114.73</ele>
        <time>2022-04-27T09:37:55.000Z</time>
      </trkpt>
      <trkpt lat="43.46605" lon="3.75228">
        <ele>115.73</ele>
        <time>2022-04-27T09:38:05.000Z</time>
      </trkpt>
      <trkpt lat="43.46606" lon="3.75226">
        <ele>115.73</ele>
        <time>2022-04-27T09:38:24.000Z</time>
      </trkpt>
      <trkpt lat="43.46605" lon="3.75223">
        <ele>118.67</ele>
        <time>2022-04-27T09:38:33.483Z</time>
      </trkpt>
      <trkpt lat="43.46605" lon="3.75217">
        <ele>122.48</ele>
        <time>2022-04-27T09:38:42.563Z</time>
      </trkpt>
      <trkpt lat="43.46606" lon="3.75211">
        <ele>124.67</ele>
        <time>2022-04-27T09:38:52.000Z</time>
      </trkpt>
      <trkpt lat="43.46604" lon="3.75202">
        <ele>124.74</ele>
        <time>2022-04-27T09:39:01.623Z</time>
      </trkpt>
      <trkpt lat="43.46595" lon="3.752">
        <ele>124.73</ele>
        <time>2022-04-27T09:39:10.624Z</time>
      </trkpt>
      <trkpt lat="43.4659" lon="3.75203">
        <ele>124.73</ele>
        <time>2022-04-27T09:39:20.000Z</time>
      </trkpt>
      <trkpt lat="43.46584" lon="3.75205">
        <ele>124.73</ele>
        <time>2022-04-27T09:39:29.743Z</time>
      </trkpt>
      <trkpt lat="43.46575" lon="3.75209">
        <ele>125.72</ele>
        <time>2022-04-27T09:39:38.763Z</time>
      </trkpt>
      <trkpt lat="43.46566" lon="3.75211">
        <ele>125.73</ele>
        <time>2022-04-27T09:39:47.904Z</time>
      </trkpt>
      <trkpt lat="43.46557" lon="3.75212">
        <ele>126.98</ele>
        <time>2022-04-27T09:39:57.000Z</time>
      </trkpt>
      <trkpt lat="43.46547" lon="3.75216">
        <ele>128.73</ele>
        <time>2022-04-27T09:40:07.000Z</time>
      </trkpt>
      <trkpt lat="43.46536" lon="3.75219">
        <ele>130.73</ele>
        <time>2022-04-27T09:40:17.083Z</time>
      </trkpt>
      <trkpt lat="43.46529" lon="3.7522">
        <ele>129.74</ele>
        <time>2022-04-27T09:40:27.000Z</time>
      </trkpt>
      <trkpt lat="43.46524" lon="3.75222">
        <ele>131.74</ele>
        <time>2022-04-27T09:40:36.063Z</time>
      </trkpt>
      <trkpt lat="43.4652" lon="3.75226">
        <ele>131.73</ele>
        <time>2022-04-27T09:40:46.000Z</time>
      </trkpt>
      <trkpt lat="43.46519" lon="3.75226">
        <ele>131.74</ele>
        <time>2022-04-27T09:40:59.000Z</time>
      </trkpt>
      <trkpt lat="43.46518" lon="3.75226">
        <ele>130.99</ele>
        <time>2022-04-27T09:41:11.000Z</time>
      </trkpt>
      <trkpt lat="43.46516" lon="3.75226">
        <ele>130.69</ele>
        <time>2022-04-27T09:41:21.000Z</time>
      </trkpt>
      <trkpt lat="43.46515" lon="3.75228">
        <ele>131.74</ele>
        <time>2022-04-27T09:41:31.000Z</time>
      </trkpt>
      <trkpt lat="43.46513" lon="3.75228">
        <ele>130.74</ele>
        <time>2022-04-27T09:45:51.000Z</time>
      </trkpt>
      <trkpt lat="43.46514" lon="3.75229">
        <ele>129.8</ele>
        <time>2022-04-27T09:48:55.000Z</time>
      </trkpt>
      <trkpt lat="43.46514" lon="3.7523">
        <ele>128.75</ele>
        <time>2022-04-27T09:49:10.843Z</time>
      </trkpt>
      <trkpt lat="43.46513" lon="3.7523">
        <ele>128.74</ele>
        <time>2022-04-27T09:49:24.000Z</time>
      </trkpt>
      <trkpt lat="43.46511" lon="3.7523">
        <ele>130.74</ele>
        <time>2022-04-27T09:49:34.000Z</time>
      </trkpt>
      <trkpt lat="43.46512" lon="3.75231">
        <ele>130.78</ele>
        <time>2022-04-27T09:50:10.000Z</time>
      </trkpt>
      <trkpt lat="43.46513" lon="3.75231">
        <ele>130.74</ele>
        <time>2022-04-27T09:50:20.000Z</time>
      </trkpt>
      <trkpt lat="43.46512" lon="3.7523">
        <ele>129.99</ele>
        <time>2022-04-27T09:51:02.000Z</time>
      </trkpt>
      <trkpt lat="43.46513" lon="3.75229">
        <ele>129.74</ele>
        <time>2022-04-27T09:52:04.582Z</time>
      </trkpt>
      <trkpt lat="43.46515" lon="3.75228">
        <ele>131.67</ele>
        <time>2022-04-27T09:52:14.000Z</time>
      </trkpt>
      <trkpt lat="43.46516" lon="3.75229">
        <ele>129.74</ele>
        <time>2022-04-27T09:53:26.000Z</time>
      </trkpt>
      <trkpt lat="43.46516" lon="3.7523">
        <ele>129.74</ele>
        <time>2022-04-27T09:53:51.000Z</time>
      </trkpt>
      <trkpt lat="43.46517" lon="3.75231">
        <ele>129.74</ele>
        <time>2022-04-27T09:54:28.000Z</time>
      </trkpt>
      <trkpt lat="43.46515" lon="3.75228">
        <ele>131.74</ele>
        <time>2022-04-27T09:54:37.423Z</time>
      </trkpt>
      <trkpt lat="43.46516" lon="3.75225">
        <ele>130.74</ele>
        <time>2022-04-27T09:54:47.000Z</time>
      </trkpt>
      <trkpt lat="43.46517" lon="3.75224">
        <ele>130.74</ele>
        <time>2022-04-27T09:55:02.732Z</time>
      </trkpt>
      <trkpt lat="43.46521" lon="3.75223">
        <ele>129.99</ele>
        <time>2022-04-27T09:55:12.905Z</time>
      </trkpt>
      <trkpt lat="43.46528" lon="3.75219">
        <ele>130.74</ele>
        <time>2022-04-27T09:55:21.983Z</time>
      </trkpt>
      <trkpt lat="43.46529" lon="3.75219">
        <ele>130.74</ele>
        <time>2022-04-27T09:55:33.000Z</time>
      </trkpt>
      <trkpt lat="43.46535" lon="3.75216">
        <ele>129.74</ele>
        <time>2022-04-27T09:55:43.000Z</time>
      </trkpt>
      <trkpt lat="43.46545" lon="3.75217">
        <ele>130.55</ele>
        <time>2022-04-27T09:55:53.000Z</time>
      </trkpt>
      <trkpt lat="43.4655" lon="3.75218">
        <ele>129.73</ele>
        <time>2022-04-27T09:56:02.802Z</time>
      </trkpt>
      <trkpt lat="43.46553" lon="3.75218">
        <ele>129.48</ele>
        <time>2022-04-27T09:56:12.143Z</time>
      </trkpt>
      <trkpt lat="43.46563" lon="3.75215">
        <ele>128.69</ele>
        <time>2022-04-27T09:56:21.962Z</time>
      </trkpt>
      <trkpt lat="43.46573" lon="3.75211">
        <ele>127.73</ele>
        <time>2022-04-27T09:56:32.000Z</time>
      </trkpt>
      <trkpt lat="43.4658" lon="3.75211">
        <ele>126.73</ele>
        <time>2022-04-27T09:56:42.002Z</time>
      </trkpt>
      <trkpt lat="43.46592" lon="3.75205">
        <ele>126.73</ele>
        <time>2022-04-27T09:56:51.602Z</time>
      </trkpt>
      <trkpt lat="43.466" lon="3.75202">
        <ele>126.73</ele>
        <time>2022-04-27T09:57:00.701Z</time>
      </trkpt>
      <trkpt lat="43.4661" lon="3.75201">
        <ele>124.8</ele>
        <time>2022-04-27T09:57:09.809Z</time>
      </trkpt>
      <trkpt lat="43.4662" lon="3.752">
        <ele>123.73</ele>
        <time>2022-04-27T09:57:19.404Z</time>
      </trkpt>
      <trkpt lat="43.4663" lon="3.752">
        <ele>123.73</ele>
        <time>2022-04-27T09:57:28.585Z</time>
      </trkpt>
      <trkpt lat="43.46641" lon="3.75199">
        <ele>123.73</ele>
        <time>2022-04-27T09:57:37.723Z</time>
      </trkpt>
      <trkpt lat="43.46645" lon="3.75198">
        <ele>121.8</ele>
        <time>2022-04-27T09:57:47.000Z</time>
      </trkpt>
      <trkpt lat="43.46653" lon="3.75197">
        <ele>121.73</ele>
        <time>2022-04-27T09:57:56.344Z</time>
      </trkpt>
      <trkpt lat="43.46664" lon="3.752">
        <ele>120.98</ele>
        <time>2022-04-27T09:58:05.703Z</time>
      </trkpt>
      <trkpt lat="43.46674" lon="3.75201">
        <ele>119.73</ele>
        <time>2022-04-27T09:58:14.823Z</time>
      </trkpt>
      <trkpt lat="43.46685" lon="3.75202">
        <ele>118.73</ele>
        <time>2022-04-27T09:58:24.283Z</time>
      </trkpt>
      <trkpt lat="43.46694" lon="3.75207">
        <ele>117.75</ele>
        <time>2022-04-27T09:58:33.843Z</time>
      </trkpt>
      <trkpt lat="43.46702" lon="3.75212">
        <ele>117.67</ele>
        <time>2022-04-27T09:58:43.283Z</time>
      </trkpt>
      <trkpt lat="43.46713" lon="3.75218">
        <ele>115.74</ele>
        <time>2022-04-27T09:58:52.703Z</time>
      </trkpt>
      <trkpt lat="43.46723" lon="3.75223">
        <ele>115.98</ele>
        <time>2022-04-27T09:59:01.762Z</time>
      </trkpt>
      <trkpt lat="43.46733" lon="3.7523">
        <ele>114.73</ele>
        <time>2022-04-27T09:59:11.323Z</time>
      </trkpt>
      <trkpt lat="43.46741" lon="3.75239">
        <ele>114.73</ele>
        <time>2022-04-27T09:59:20.424Z</time>
      </trkpt>
      <trkpt lat="43.46751" lon="3.75247">
        <ele>114.73</ele>
        <time>2022-04-27T09:59:29.743Z</time>
      </trkpt>
      <trkpt lat="43.46761" lon="3.75253">
        <ele>114.73</ele>
        <time>2022-04-27T09:59:38.942Z</time>
      </trkpt>
      <trkpt lat="43.46771" lon="3.7526">
        <ele>115.53</ele>
        <time>2022-04-27T09:59:49.004Z</time>
      </trkpt>
      <trkpt lat="43.46781" lon="3.75268">
        <ele>117.48</ele>
        <time>2022-04-27T09:59:58.682Z</time>
      </trkpt>
      <trkpt lat="43.46788" lon="3.75276">
        <ele>117.73</ele>
        <time>2022-04-27T10:00:08.000Z</time>
      </trkpt>
      <trkpt lat="43.46792" lon="3.75288">
        <ele>118.73</ele>
        <time>2022-04-27T10:00:17.622Z</time>
      </trkpt>
      <trkpt lat="43.46793" lon="3.753">
        <ele>118.73</ele>
        <time>2022-04-27T10:00:26.964Z</time>
      </trkpt>
      <trkpt lat="43.46795" lon="3.75312">
        <ele>120.73</ele>
        <time>2022-04-27T10:00:36.054Z</time>
      </trkpt>
      <trkpt lat="43.46795" lon="3.75326">
        <ele>121.73</ele>
        <time>2022-04-27T10:00:46.025Z</time>
      </trkpt>
      <trkpt lat="43.46802" lon="3.75338">
        <ele>120.73</ele>
        <time>2022-04-27T10:00:55.803Z</time>
      </trkpt>
      <trkpt lat="43.46809" lon="3.75346">
        <ele>120.98</ele>
        <time>2022-04-27T10:01:05.000Z</time>
      </trkpt>
      <trkpt lat="43.4682" lon="3.75351">
        <ele>118.8</ele>
        <time>2022-04-27T10:01:14.996Z</time>
      </trkpt>
      <trkpt lat="43.46833" lon="3.7535">
        <ele>116.73</ele>
        <time>2022-04-27T10:01:24.000Z</time>
      </trkpt>
      <trkpt lat="43.46844" lon="3.7535">
        <ele>117.73</ele>
        <time>2022-04-27T10:01:33.985Z</time>
      </trkpt>
      <trkpt lat="43.46856" lon="3.75348">
        <ele>115.49</ele>
        <time>2022-04-27T10:01:43.000Z</time>
      </trkpt>
      <trkpt lat="43.46867" lon="3.75347">
        <ele>114.73</ele>
        <time>2022-04-27T10:01:52.424Z</time>
      </trkpt>
      <trkpt lat="43.46879" lon="3.75352">
        <ele>114.73</ele>
        <time>2022-04-27T10:02:01.804Z</time>
      </trkpt>
      <trkpt lat="43.46888" lon="3.75355">
        <ele>114.73</ele>
        <time>2022-04-27T10:02:10.924Z</time>
      </trkpt>
      <trkpt lat="43.46899" lon="3.7536">
        <ele>114.97</ele>
        <time>2022-04-27T10:02:20.000Z</time>
      </trkpt>
      <trkpt lat="43.46909" lon="3.75364">
        <ele>115.73</ele>
        <time>2022-04-27T10:02:29.485Z</time>
      </trkpt>
      <trkpt lat="43.4692" lon="3.75369">
        <ele>115.67</ele>
        <time>2022-04-27T10:02:38.882Z</time>
      </trkpt>
      <trkpt lat="43.4693" lon="3.75374">
        <ele>115.73</ele>
        <time>2022-04-27T10:02:48.944Z</time>
      </trkpt>
      <trkpt lat="43.4694" lon="3.75378">
        <ele>115.74</ele>
        <time>2022-04-27T10:02:58.042Z</time>
      </trkpt>
      <trkpt lat="43.46949" lon="3.75371">
        <ele>116.73</ele>
        <time>2022-04-27T10:03:08.000Z</time>
      </trkpt>
      <trkpt lat="43.4695" lon="3.75372">
        <ele>117.67</ele>
        <time>2022-04-27T10:03:44.000Z</time>
      </trkpt>
      <trkpt lat="43.46952" lon="3.75371">
        <ele>117.73</ele>
        <time>2022-04-27T10:03:53.524Z</time>
      </trkpt>
      <trkpt lat="43.46954" lon="3.75372">
        <ele>117.73</ele>
        <time>2022-04-27T10:04:03.000Z</time>
      </trkpt>
      <trkpt lat="43.46962" lon="3.75367">
        <ele>117.73</ele>
        <time>2022-04-27T10:04:12.703Z</time>
      </trkpt>
      <trkpt lat="43.46971" lon="3.75358">
        <ele>116.98</ele>
        <time>2022-04-27T10:04:22.000Z</time>
      </trkpt>
      <trkpt lat="43.46978" lon="3.75354">
        <ele>116.97</ele>
        <time>2022-04-27T10:04:31.925Z</time>
      </trkpt>
      <trkpt lat="43.4698" lon="3.75354">
        <ele>116.73</ele>
        <time>2022-04-27T10:04:41.000Z</time>
      </trkpt>
      <trkpt lat="43.46983" lon="3.75352">
        <ele>116.73</ele>
        <time>2022-04-27T10:04:51.000Z</time>
      </trkpt>
      <trkpt lat="43.46985" lon="3.7535">
        <ele>116.73</ele>
        <time>2022-04-27T10:05:00.925Z</time>
      </trkpt>
      <trkpt lat="43.46988" lon="3.75348">
        <ele>116.73</ele>
        <time>2022-04-27T10:05:10.000Z</time>
      </trkpt>
      <trkpt lat="43.46989" lon="3.75347">
        <ele>116.73</ele>
        <time>2022-04-27T10:05:20.000Z</time>
      </trkpt>
      <trkpt lat="43.4699" lon="3.75344">
        <ele>117.73</ele>
        <time>2022-04-27T10:05:30.000Z</time>
      </trkpt>
      <trkpt lat="43.46991" lon="3.75342">
        <ele>116.98</ele>
        <time>2022-04-27T10:05:44.000Z</time>
      </trkpt>
      <trkpt lat="43.46992" lon="3.75346">
        <ele>116.73</ele>
        <time>2022-04-27T10:05:53.565Z</time>
      </trkpt>
      <trkpt lat="43.46995" lon="3.75358">
        <ele>117.73</ele>
        <time>2022-04-27T10:06:03.005Z</time>
      </trkpt>
      <trkpt lat="43.46994" lon="3.75357">
        <ele>117.73</ele>
        <time>2022-04-27T10:06:12.982Z</time>
      </trkpt>
      <trkpt lat="43.46994" lon="3.75358">
        <ele>115.73</ele>
        <time>2022-04-27T10:06:24.000Z</time>
      </trkpt>
      <trkpt lat="43.46995" lon="3.75358">
        <ele>115.73</ele>
        <time>2022-04-27T10:06:37.000Z</time>
      </trkpt>
      <trkpt lat="43.46996" lon="3.75358">
        <ele>115.73</ele>
        <time>2022-04-27T10:06:50.000Z</time>
      </trkpt>
      <trkpt lat="43.46995" lon="3.75356">
        <ele>115.73</ele>
        <time>2022-04-27T10:07:03.562Z</time>
      </trkpt>
      <trkpt lat="43.46994" lon="3.75343">
        <ele>118.42</ele>
        <time>2022-04-27T10:07:13.000Z</time>
      </trkpt>
      <trkpt lat="43.46994" lon="3.75339">
        <ele>117.73</ele>
        <time>2022-04-27T10:07:22.504Z</time>
      </trkpt>
      <trkpt lat="43.46993" lon="3.75327">
        <ele>116.73</ele>
        <time>2022-04-27T10:07:31.513Z</time>
      </trkpt>
      <trkpt lat="43.46994" lon="3.75318">
        <ele>116.73</ele>
        <time>2022-04-27T10:07:40.623Z</time>
      </trkpt>
      <trkpt lat="43.46992" lon="3.75311">
        <ele>115.73</ele>
        <time>2022-04-27T10:07:50.000Z</time>
      </trkpt>
      <trkpt lat="43.46987" lon="3.75299">
        <ele>114.98</ele>
        <time>2022-04-27T10:07:59.024Z</time>
      </trkpt>
      <trkpt lat="43.46986" lon="3.7529">
        <ele>112.75</ele>
        <time>2022-04-27T10:08:08.922Z</time>
      </trkpt>
      <trkpt lat="43.46985" lon="3.7528">
        <ele>111.73</ele>
        <time>2022-04-27T10:08:18.000Z</time>
      </trkpt>
      <trkpt lat="43.46985" lon="3.75273">
        <ele>110.73</ele>
        <time>2022-04-27T10:08:27.083Z</time>
      </trkpt>
      <trkpt lat="43.46986" lon="3.75261">
        <ele>108.73</ele>
        <time>2022-04-27T10:08:36.482Z</time>
      </trkpt>
      <trkpt lat="43.46986" lon="3.75252">
        <ele>107.73</ele>
        <time>2022-04-27T10:08:45.844Z</time>
      </trkpt>
      <trkpt lat="43.46982" lon="3.75244">
        <ele>107.73</ele>
        <time>2022-04-27T10:08:55.030Z</time>
      </trkpt>
      <trkpt lat="43.46981" lon="3.7524">
        <ele>104.75</ele>
        <time>2022-04-27T10:09:05.000Z</time>
      </trkpt>
      <trkpt lat="43.46979" lon="3.75235">
        <ele>104.73</ele>
        <time>2022-04-27T10:09:15.000Z</time>
      </trkpt>
      <trkpt lat="43.4698" lon="3.75224">
        <ele>105.73</ele>
        <time>2022-04-27T10:09:24.905Z</time>
      </trkpt>
      <trkpt lat="43.4698" lon="3.75217">
        <ele>105.73</ele>
        <time>2022-04-27T10:09:34.000Z</time>
      </trkpt>
      <trkpt lat="43.46981" lon="3.75211">
        <ele>106.73</ele>
        <time>2022-04-27T10:09:44.000Z</time>
      </trkpt>
      <trkpt lat="43.4698" lon="3.75209">
        <ele>106.73</ele>
        <time>2022-04-27T10:09:54.000Z</time>
      </trkpt>
      <trkpt lat="43.4698" lon="3.75207">
        <ele>106.73</ele>
        <time>2022-04-27T10:10:06.705Z</time>
      </trkpt>
      <trkpt lat="43.4699" lon="3.75198">
        <ele>106.73</ele>
        <time>2022-04-27T10:10:16.502Z</time>
      </trkpt>
      <trkpt lat="43.46998" lon="3.75196">
        <ele>107.73</ele>
        <time>2022-04-27T10:10:25.824Z</time>
      </trkpt>
      <trkpt lat="43.46999" lon="3.75194">
        <ele>108.73</ele>
        <time>2022-04-27T10:10:35.000Z</time>
      </trkpt>
      <trkpt lat="43.47" lon="3.75194">
        <ele>107.73</ele>
        <time>2022-04-27T10:10:49.000Z</time>
      </trkpt>
      <trkpt lat="43.47004" lon="3.7519">
        <ele>106.74</ele>
        <time>2022-04-27T10:10:59.000Z</time>
      </trkpt>
      <trkpt lat="43.47007" lon="3.75185">
        <ele>105.73</ele>
        <time>2022-04-27T10:11:08.083Z</time>
      </trkpt>
      <trkpt lat="43.47006" lon="3.75175">
        <ele>104.73</ele>
        <time>2022-04-27T10:11:18.000Z</time>
      </trkpt>
      <trkpt lat="43.47006" lon="3.75174">
        <ele>103.73</ele>
        <time>2022-04-27T10:11:28.000Z</time>
      </trkpt>
      <trkpt lat="43.47005" lon="3.75173">
        <ele>104.71</ele>
        <time>2022-04-27T10:12:03.026Z</time>
      </trkpt>
      <trkpt lat="43.47008" lon="3.75173">
        <ele>105.73</ele>
        <time>2022-04-27T10:12:13.000Z</time>
      </trkpt>
      <trkpt lat="43.47008" lon="3.75175">
        <ele>105.73</ele>
        <time>2022-04-27T10:12:25.000Z</time>
      </trkpt>
      <trkpt lat="43.47007" lon="3.75176">
        <ele>106.73</ele>
        <time>2022-04-27T10:12:43.690Z</time>
      </trkpt>
      <trkpt lat="43.47004" lon="3.75185">
        <ele>106.73</ele>
        <time>2022-04-27T10:12:53.004Z</time>
      </trkpt>
      <trkpt lat="43.47003" lon="3.75192">
        <ele>105.73</ele>
        <time>2022-04-27T10:13:02.904Z</time>
      </trkpt>
      <trkpt lat="43.46994" lon="3.75195">
        <ele>104.73</ele>
        <time>2022-04-27T10:13:12.000Z</time>
      </trkpt>
      <trkpt lat="43.46986" lon="3.75198">
        <ele>103.73</ele>
        <time>2022-04-27T10:13:21.443Z</time>
      </trkpt>
      <trkpt lat="43.46983" lon="3.75212">
        <ele>104.67</ele>
        <time>2022-04-27T10:13:30.678Z</time>
      </trkpt>
      <trkpt lat="43.4698" lon="3.75224">
        <ele>104.48</ele>
        <time>2022-04-27T10:13:40.182Z</time>
      </trkpt>
      <trkpt lat="43.46975" lon="3.75231">
        <ele>103.97</ele>
        <time>2022-04-27T10:13:50.004Z</time>
      </trkpt>
      <trkpt lat="43.46968" lon="3.75227">
        <ele>102.98</ele>
        <time>2022-04-27T10:13:59.385Z</time>
      </trkpt>
      <trkpt lat="43.4696" lon="3.75224">
        <ele>102.73</ele>
        <time>2022-04-27T10:14:08.524Z</time>
      </trkpt>
      <trkpt lat="43.46952" lon="3.75218">
        <ele>101.73</ele>
        <time>2022-04-27T10:14:18.000Z</time>
      </trkpt>
      <trkpt lat="43.46945" lon="3.75213">
        <ele>101.98</ele>
        <time>2022-04-27T10:14:27.689Z</time>
      </trkpt>
      <trkpt lat="43.46941" lon="3.75212">
        <ele>100.73</ele>
        <time>2022-04-27T10:14:37.000Z</time>
      </trkpt>
      <trkpt lat="43.46933" lon="3.75205">
        <ele>100.73</ele>
        <time>2022-04-27T10:14:46.324Z</time>
      </trkpt>
      <trkpt lat="43.46932" lon="3.75204">
        <ele>100.73</ele>
        <time>2022-04-27T10:14:58.903Z</time>
      </trkpt>
      <trkpt lat="43.46925" lon="3.75196">
        <ele>99.73</ele>
        <time>2022-04-27T10:15:08.083Z</time>
      </trkpt>
      <trkpt lat="43.46921" lon="3.75188">
        <ele>100.73</ele>
        <time>2022-04-27T10:15:17.483Z</time>
      </trkpt>
      <trkpt lat="43.46916" lon="3.7518">
        <ele>100.73</ele>
        <time>2022-04-27T10:15:27.062Z</time>
      </trkpt>
      <trkpt lat="43.4691" lon="3.7517">
        <ele>98.73</ele>
        <time>2022-04-27T10:15:36.691Z</time>
      </trkpt>
      <trkpt lat="43.46906" lon="3.75159">
        <ele>97.73</ele>
        <time>2022-04-27T10:15:46.204Z</time>
      </trkpt>
      <trkpt lat="43.46902" lon="3.75153">
        <ele>97.73</ele>
        <time>2022-04-27T10:15:55.504Z</time>
      </trkpt>
      <trkpt lat="43.46899" lon="3.75144">
        <ele>98.67</ele>
        <time>2022-04-27T10:16:04.885Z</time>
      </trkpt>
      <trkpt lat="43.46893" lon="3.75133">
        <ele>94.98</ele>
        <time>2022-04-27T10:16:14.525Z</time>
      </trkpt>
      <trkpt lat="43.46886" lon="3.75122">
        <ele>93.73</ele>
        <time>2022-04-27T10:16:24.000Z</time>
      </trkpt>
      <trkpt lat="43.46881" lon="3.75111">
        <ele>92.73</ele>
        <time>2022-04-27T10:16:33.682Z</time>
      </trkpt>
      <trkpt lat="43.46873" lon="3.75103">
        <ele>92.73</ele>
        <time>2022-04-27T10:16:42.803Z</time>
      </trkpt>
      <trkpt lat="43.46865" lon="3.75094">
        <ele>92.73</ele>
        <time>2022-04-27T10:16:52.000Z</time>
      </trkpt>
      <trkpt lat="43.46857" lon="3.75084">
        <ele>91.73</ele>
        <time>2022-04-27T10:17:02.000Z</time>
      </trkpt>
      <trkpt lat="43.46851" lon="3.75074">
        <ele>89.73</ele>
        <time>2022-04-27T10:17:11.925Z</time>
      </trkpt>
      <trkpt lat="43.46846" lon="3.75063">
        <ele>88.73</ele>
        <time>2022-04-27T10:17:22.062Z</time>
      </trkpt>
      <trkpt lat="43.46846" lon="3.75055">
        <ele>86.75</ele>
        <time>2022-04-27T10:17:31.863Z</time>
      </trkpt>
      <trkpt lat="43.46845" lon="3.75048">
        <ele>86.73</ele>
        <time>2022-04-27T10:17:40.984Z</time>
      </trkpt>
      <trkpt lat="43.46844" lon="3.75034">
        <ele>85.73</ele>
        <time>2022-04-27T10:17:50.344Z</time>
      </trkpt>
      <trkpt lat="43.46839" lon="3.75023">
        <ele>83.75</ele>
        <time>2022-04-27T10:17:59.384Z</time>
      </trkpt>
      <trkpt lat="43.4683" lon="3.7502">
        <ele>82.73</ele>
        <time>2022-04-27T10:18:08.719Z</time>
      </trkpt>
      <trkpt lat="43.46824" lon="3.75014">
        <ele>83.73</ele>
        <time>2022-04-27T10:18:18.522Z</time>
      </trkpt>
      <trkpt lat="43.46818" lon="3.75005">
        <ele>82.73</ele>
        <time>2022-04-27T10:18:28.004Z</time>
      </trkpt>
      <trkpt lat="43.46814" lon="3.74997">
        <ele>82.73</ele>
        <time>2022-04-27T10:18:37.444Z</time>
      </trkpt>
      <trkpt lat="43.46812" lon="3.74995">
        <ele>82.73</ele>
        <time>2022-04-27T10:18:46.563Z</time>
      </trkpt>
      <trkpt lat="43.46807" lon="3.74991">
        <ele>80.73</ele>
        <time>2022-04-27T10:18:55.718Z</time>
      </trkpt>
      <trkpt lat="43.46802" lon="3.74982">
        <ele>79.73</ele>
        <time>2022-04-27T10:19:04.864Z</time>
      </trkpt>
      <trkpt lat="43.46796" lon="3.74972">
        <ele>79.68</ele>
        <time>2022-04-27T10:19:14.000Z</time>
      </trkpt>
      <trkpt lat="43.46803" lon="3.74969">
        <ele>82.67</ele>
        <time>2022-04-27T10:19:23.605Z</time>
      </trkpt>
      <trkpt lat="43.46812" lon="3.74968">
        <ele>85.48</ele>
        <time>2022-04-27T10:19:33.000Z</time>
      </trkpt>
      <trkpt lat="43.46821" lon="3.74971">
        <ele>87.73</ele>
        <time>2022-04-27T10:19:42.883Z</time>
      </trkpt>
      <trkpt lat="43.4683" lon="3.74971">
        <ele>88.73</ele>
        <time>2022-04-27T10:19:52.803Z</time>
      </trkpt>
      <trkpt lat="43.46839" lon="3.74972">
        <ele>90.71</ele>
        <time>2022-04-27T10:20:01.883Z</time>
      </trkpt>
      <trkpt lat="43.46849" lon="3.74972">
        <ele>91.73</ele>
        <time>2022-04-27T10:20:11.902Z</time>
      </trkpt>
      <trkpt lat="43.46851" lon="3.74979">
        <ele>90.72</ele>
        <time>2022-04-27T10:20:21.000Z</time>
      </trkpt>
      <trkpt lat="43.46851" lon="3.74977">
        <ele>89.73</ele>
        <time>2022-04-27T10:20:39.000Z</time>
      </trkpt>
      <trkpt lat="43.46852" lon="3.74976">
        <ele>89.73</ele>
        <time>2022-04-27T10:20:50.000Z</time>
      </trkpt>
      <trkpt lat="43.4685" lon="3.74979">
        <ele>90.73</ele>
        <time>2022-04-27T10:20:59.965Z</time>
      </trkpt>
      <trkpt lat="43.46851" lon="3.74992">
        <ele>91.73</ele>
        <time>2022-04-27T10:21:09.000Z</time>
      </trkpt>
      <trkpt lat="43.4685" lon="3.74994">
        <ele>90.98</ele>
        <time>2022-04-27T10:21:19.000Z</time>
      </trkpt>
      <trkpt lat="43.46852" lon="3.74995">
        <ele>89.73</ele>
        <time>2022-04-27T10:21:29.000Z</time>
      </trkpt>
      <trkpt lat="43.46855" lon="3.74985">
        <ele>89.79</ele>
        <time>2022-04-27T10:21:38.645Z</time>
      </trkpt>
      <trkpt lat="43.46854" lon="3.74975">
        <ele>89.73</ele>
        <time>2022-04-27T10:21:47.672Z</time>
      </trkpt>
      <trkpt lat="43.46855" lon="3.74976">
        <ele>90.73</ele>
        <time>2022-04-27T10:21:58.562Z</time>
      </trkpt>
      <trkpt lat="43.46852" lon="3.74977">
        <ele>89.73</ele>
        <time>2022-04-27T10:22:08.000Z</time>
      </trkpt>
      <trkpt lat="43.46854" lon="3.74975">
        <ele>88.98</ele>
        <time>2022-04-27T10:22:18.283Z</time>
      </trkpt>
      <trkpt lat="43.46864" lon="3.74975">
        <ele>90.73</ele>
        <time>2022-04-27T10:22:27.763Z</time>
      </trkpt>
      <trkpt lat="43.46874" lon="3.74975">
        <ele>93.73</ele>
        <time>2022-04-27T10:22:36.983Z</time>
      </trkpt>
      <trkpt lat="43.46884" lon="3.74978">
        <ele>96.67</ele>
        <time>2022-04-27T10:22:47.000Z</time>
      </trkpt>
      <trkpt lat="43.46894" lon="3.74978">
        <ele>96.73</ele>
        <time>2022-04-27T10:22:56.004Z</time>
      </trkpt>
      <trkpt lat="43.46903" lon="3.74979">
        <ele>98.73</ele>
        <time>2022-04-27T10:23:05.525Z</time>
      </trkpt>
      <trkpt lat="43.46903" lon="3.7498">
        <ele>98.73</ele>
        <time>2022-04-27T10:23:15.000Z</time>
      </trkpt>
      <trkpt lat="43.46905" lon="3.74982">
        <ele>93.79</ele>
        <time>2022-04-27T10:23:29.000Z</time>
      </trkpt>
      <trkpt lat="43.46906" lon="3.74984">
        <ele>92.73</ele>
        <time>2022-04-27T10:23:38.604Z</time>
      </trkpt>
      <trkpt lat="43.46908" lon="3.74986">
        <ele>92.73</ele>
        <time>2022-04-27T10:23:48.000Z</time>
      </trkpt>
      <trkpt lat="43.4691" lon="3.74986">
        <ele>92.73</ele>
        <time>2022-04-27T10:23:58.000Z</time>
      </trkpt>
      <trkpt lat="43.4691" lon="3.74987">
        <ele>92.73</ele>
        <time>2022-04-27T10:24:10.643Z</time>
      </trkpt>
      <trkpt lat="43.4691" lon="3.74985">
        <ele>93.73</ele>
        <time>2022-04-27T10:24:21.000Z</time>
      </trkpt>
      <trkpt lat="43.46908" lon="3.74981">
        <ele>93.73</ele>
        <time>2022-04-27T10:24:30.743Z</time>
      </trkpt>
      <trkpt lat="43.46914" lon="3.74979">
        <ele>95.73</ele>
        <time>2022-04-27T10:24:40.583Z</time>
      </trkpt>
      <trkpt lat="43.46923" lon="3.74978">
        <ele>96.73</ele>
        <time>2022-04-27T10:24:49.603Z</time>
      </trkpt>
      <trkpt lat="43.4693" lon="3.74981">
        <ele>100.48</ele>
        <time>2022-04-27T10:24:58.902Z</time>
      </trkpt>
      <trkpt lat="43.4694" lon="3.74981">
        <ele>100.73</ele>
        <time>2022-04-27T10:25:08.000Z</time>
      </trkpt>
      <trkpt lat="43.46953" lon="3.7498">
        <ele>99.73</ele>
        <time>2022-04-27T10:25:17.843Z</time>
      </trkpt>
      <trkpt lat="43.46965" lon="3.74981">
        <ele>100.73</ele>
        <time>2022-04-27T10:25:27.000Z</time>
      </trkpt>
      <trkpt lat="43.46969" lon="3.74981">
        <ele>99.96</ele>
        <time>2022-04-27T10:25:37.000Z</time>
      </trkpt>
      <trkpt lat="43.4697" lon="3.74981">
        <ele>98.73</ele>
        <time>2022-04-27T10:25:48.000Z</time>
      </trkpt>
      <trkpt lat="43.46974" lon="3.74978">
        <ele>97.48</ele>
        <time>2022-04-27T10:25:57.323Z</time>
      </trkpt>
      <trkpt lat="43.4698" lon="3.74981">
        <ele>96.73</ele>
        <time>2022-04-27T10:26:06.324Z</time>
      </trkpt>
      <trkpt lat="43.46991" lon="3.74985">
        <ele>96.97</ele>
        <time>2022-04-27T10:26:15.743Z</time>
      </trkpt>
      <trkpt lat="43.47002" lon="3.74991">
        <ele>98.47</ele>
        <time>2022-04-27T10:26:25.544Z</time>
      </trkpt>
      <trkpt lat="43.47005" lon="3.7499">
        <ele>99.73</ele>
        <time>2022-04-27T10:26:35.000Z</time>
      </trkpt>
      <trkpt lat="43.47014" lon="3.74993">
        <ele>98.97</ele>
        <time>2022-04-27T10:26:44.743Z</time>
      </trkpt>
      <trkpt lat="43.47026" lon="3.74996">
        <ele>99.72</ele>
        <time>2022-04-27T10:26:54.030Z</time>
      </trkpt>
      <trkpt lat="43.47037" lon="3.74997">
        <ele>98.73</ele>
        <time>2022-04-27T10:27:03.244Z</time>
      </trkpt>
      <trkpt lat="43.47049" lon="3.75001">
        <ele>99.48</ele>
        <time>2022-04-27T10:27:12.963Z</time>
      </trkpt>
      <trkpt lat="43.47062" lon="3.75005">
        <ele>98.73</ele>
        <time>2022-04-27T10:27:22.583Z</time>
      </trkpt>
      <trkpt lat="43.47073" lon="3.75009">
        <ele>98.73</ele>
        <time>2022-04-27T10:27:32.000Z</time>
      </trkpt>
      <trkpt lat="43.47079" lon="3.75009">
        <ele>98.79</ele>
        <time>2022-04-27T10:27:42.000Z</time>
      </trkpt>
      <trkpt lat="43.47081" lon="3.7501">
        <ele>98.73</ele>
        <time>2022-04-27T10:27:52.000Z</time>
      </trkpt>
      <trkpt lat="43.47083" lon="3.7501">
        <ele>97.72</ele>
        <time>2022-04-27T10:28:02.000Z</time>
      </trkpt>
      <trkpt lat="43.47085" lon="3.75009">
        <ele>96.73</ele>
        <time>2022-04-27T10:28:13.823Z</time>
      </trkpt>
      <trkpt lat="43.47098" lon="3.75015">
        <ele>95.74</ele>
        <time>2022-04-27T10:28:23.000Z</time>
      </trkpt>
      <trkpt lat="43.4711" lon="3.75013">
        <ele>95.73</ele>
        <time>2022-04-27T10:28:32.004Z</time>
      </trkpt>
      <trkpt lat="43.47121" lon="3.75005">
        <ele>94.73</ele>
        <time>2022-04-27T10:28:41.723Z</time>
      </trkpt>
      <trkpt lat="43.47125" lon="3.75">
        <ele>95.73</ele>
        <time>2022-04-27T10:28:51.000Z</time>
      </trkpt>
      <trkpt lat="43.47124" lon="3.75001">
        <ele>95.73</ele>
        <time>2022-04-27T10:29:08.000Z</time>
      </trkpt>
      <trkpt lat="43.47126" lon="3.74999">
        <ele>95.77</ele>
        <time>2022-04-27T10:29:17.503Z</time>
      </trkpt>
      <trkpt lat="43.47138" lon="3.74997">
        <ele>95.48</ele>
        <time>2022-04-27T10:29:26.583Z</time>
      </trkpt>
      <trkpt lat="43.47149" lon="3.74998">
        <ele>96.72</ele>
        <time>2022-04-27T10:29:35.783Z</time>
      </trkpt>
      <trkpt lat="43.47153" lon="3.75001">
        <ele>98.48</ele>
        <time>2022-04-27T10:29:45.726Z</time>
      </trkpt>
      <trkpt lat="43.47169" lon="3.74999">
        <ele>100.73</ele>
        <time>2022-04-27T10:29:54.982Z</time>
      </trkpt>
      <trkpt lat="43.47182" lon="3.74998">
        <ele>101.73</ele>
        <time>2022-04-27T10:30:04.000Z</time>
      </trkpt>
      <trkpt lat="43.47194" lon="3.74997">
        <ele>101.73</ele>
        <time>2022-04-27T10:30:13.637Z</time>
      </trkpt>
      <trkpt lat="43.47205" lon="3.74994">
        <ele>101.73</ele>
        <time>2022-04-27T10:30:23.000Z</time>
      </trkpt>
      <trkpt lat="43.47216" lon="3.74991">
        <ele>102.73</ele>
        <time>2022-04-27T10:30:32.322Z</time>
      </trkpt>
      <trkpt lat="43.47227" lon="3.74989">
        <ele>104.72</ele>
        <time>2022-04-27T10:30:41.583Z</time>
      </trkpt>
      <trkpt lat="43.47238" lon="3.74986">
        <ele>104.73</ele>
        <time>2022-04-27T10:30:51.000Z</time>
      </trkpt>
      <trkpt lat="43.47251" lon="3.74982">
        <ele>105.66</ele>
        <time>2022-04-27T10:31:00.963Z</time>
      </trkpt>
      <trkpt lat="43.47262" lon="3.74978">
        <ele>105.97</ele>
        <time>2022-04-27T10:31:10.781Z</time>
      </trkpt>
      <trkpt lat="43.47274" lon="3.74973">
        <ele>106.72</ele>
        <time>2022-04-27T10:31:20.483Z</time>
      </trkpt>
      <trkpt lat="43.47284" lon="3.74963">
        <ele>107.66</ele>
        <time>2022-04-27T10:31:30.503Z</time>
      </trkpt>
      <trkpt lat="43.47293" lon="3.74953">
        <ele>107.72</ele>
        <time>2022-04-27T10:31:39.604Z</time>
      </trkpt>
      <trkpt lat="43.473" lon="3.74944">
        <ele>107.72</ele>
        <time>2022-04-27T10:31:48.742Z</time>
      </trkpt>
      <trkpt lat="43.4731" lon="3.74942">
        <ele>108.72</ele>
        <time>2022-04-27T10:31:58.000Z</time>
      </trkpt>
      <trkpt lat="43.47318" lon="3.74941">
        <ele>108.72</ele>
        <time>2022-04-27T10:32:07.083Z</time>
      </trkpt>
      <trkpt lat="43.47322" lon="3.74941">
        <ele>108.72</ele>
        <time>2022-04-27T10:32:17.000Z</time>
      </trkpt>
      <trkpt lat="43.4732" lon="3.74939">
        <ele>107.93</ele>
        <time>2022-04-27T10:32:46.000Z</time>
      </trkpt>
      <trkpt lat="43.47312" lon="3.74936">
        <ele>107.72</ele>
        <time>2022-04-27T10:32:56.062Z</time>
      </trkpt>
      <trkpt lat="43.47302" lon="3.74935">
        <ele>105.79</ele>
        <time>2022-04-27T10:33:05.844Z</time>
      </trkpt>
      <trkpt lat="43.47298" lon="3.74927">
        <ele>104.73</ele>
        <time>2022-04-27T10:33:14.924Z</time>
      </trkpt>
      <trkpt lat="43.47296" lon="3.74927">
        <ele>103.72</ele>
        <time>2022-04-27T10:33:24.584Z</time>
      </trkpt>
      <trkpt lat="43.47292" lon="3.74929">
        <ele>103.72</ele>
        <time>2022-04-27T10:33:34.000Z</time>
      </trkpt>
      <trkpt lat="43.47295" lon="3.74919">
        <ele>103.72</ele>
        <time>2022-04-27T10:33:43.063Z</time>
      </trkpt>
      <trkpt lat="43.47295" lon="3.74911">
        <ele>103.74</ele>
        <time>2022-04-27T10:33:52.324Z</time>
      </trkpt>
      <trkpt lat="43.47297" lon="3.74895">
        <ele>104.72</ele>
        <time>2022-04-27T10:34:02.000Z</time>
      </trkpt>
      <trkpt lat="43.47297" lon="3.7488">
        <ele>105.72</ele>
        <time>2022-04-27T10:34:11.302Z</time>
      </trkpt>
      <trkpt lat="43.47301" lon="3.74867">
        <ele>105.72</ele>
        <time>2022-04-27T10:34:21.025Z</time>
      </trkpt>
      <trkpt lat="43.47308" lon="3.74859">
        <ele>105.72</ele>
        <time>2022-04-27T10:34:30.062Z</time>
      </trkpt>
      <trkpt lat="43.47315" lon="3.74856">
        <ele>105.72</ele>
        <time>2022-04-27T10:34:39.867Z</time>
      </trkpt>
      <trkpt lat="43.47325" lon="3.74854">
        <ele>105.72</ele>
        <time>2022-04-27T10:34:49.174Z</time>
      </trkpt>
      <trkpt lat="43.47335" lon="3.7485">
        <ele>106.72</ele>
        <time>2022-04-27T10:34:58.803Z</time>
      </trkpt>
      <trkpt lat="43.47339" lon="3.74849">
        <ele>106.72</ele>
        <time>2022-04-27T10:35:08.000Z</time>
      </trkpt>
      <trkpt lat="43.4734" lon="3.74849">
        <ele>106.72</ele>
        <time>2022-04-27T10:35:21.000Z</time>
      </trkpt>
      <trkpt lat="43.47339" lon="3.74847">
        <ele>104.72</ele>
        <time>2022-04-27T10:35:31.000Z</time>
      </trkpt>
      <trkpt lat="43.47341" lon="3.74848">
        <ele>105.71</ele>
        <time>2022-04-27T10:35:47.664Z</time>
      </trkpt>
      <trkpt lat="43.47347" lon="3.74847">
        <ele>106.72</ele>
        <time>2022-04-27T10:35:57.000Z</time>
      </trkpt>
      <trkpt lat="43.47346" lon="3.74847">
        <ele>105.72</ele>
        <time>2022-04-27T10:36:16.000Z</time>
      </trkpt>
      <trkpt lat="43.47348" lon="3.74847">
        <ele>106.72</ele>
        <time>2022-04-27T10:36:30.000Z</time>
      </trkpt>
      <trkpt lat="43.47359" lon="3.74843">
        <ele>107.72</ele>
        <time>2022-04-27T10:36:39.644Z</time>
      </trkpt>
      <trkpt lat="43.47369" lon="3.74838">
        <ele>108.72</ele>
        <time>2022-04-27T10:36:49.000Z</time>
      </trkpt>
      <trkpt lat="43.4738" lon="3.74835">
        <ele>109.72</ele>
        <time>2022-04-27T10:36:58.942Z</time>
      </trkpt>
      <trkpt lat="43.4739" lon="3.74836">
        <ele>110.72</ele>
        <time>2022-04-27T10:37:07.985Z</time>
      </trkpt>
      <trkpt lat="43.474" lon="3.74836">
        <ele>111.66</ele>
        <time>2022-04-27T10:37:17.044Z</time>
      </trkpt>
      <trkpt lat="43.4741" lon="3.74841">
        <ele>111.72</ele>
        <time>2022-04-27T10:37:26.623Z</time>
      </trkpt>
      <trkpt lat="43.47419" lon="3.74844">
        <ele>112.72</ele>
        <time>2022-04-27T10:37:36.000Z</time>
      </trkpt>
      <trkpt lat="43.4743" lon="3.74842">
        <ele>113.72</ele>
        <time>2022-04-27T10:37:45.262Z</time>
      </trkpt>
      <trkpt lat="43.4744" lon="3.74842">
        <ele>113.96</ele>
        <time>2022-04-27T10:37:54.985Z</time>
      </trkpt>
      <trkpt lat="43.47441" lon="3.74841">
        <ele>113.72</ele>
        <time>2022-04-27T10:38:13.000Z</time>
      </trkpt>
      <trkpt lat="43.47451" lon="3.74839">
        <ele>113.73</ele>
        <time>2022-04-27T10:38:22.726Z</time>
      </trkpt>
      <trkpt lat="43.47459" lon="3.74832">
        <ele>113.72</ele>
        <time>2022-04-27T10:38:31.882Z</time>
      </trkpt>
      <trkpt lat="43.47468" lon="3.74828">
        <ele>113.73</ele>
        <time>2022-04-27T10:38:41.303Z</time>
      </trkpt>
      <trkpt lat="43.47475" lon="3.7482">
        <ele>114.72</ele>
        <time>2022-04-27T10:38:50.565Z</time>
      </trkpt>
      <trkpt lat="43.47484" lon="3.74811">
        <ele>114.72</ele>
        <time>2022-04-27T10:39:00.000Z</time>
      </trkpt>
      <trkpt lat="43.47493" lon="3.74805">
        <ele>115.72</ele>
        <time>2022-04-27T10:39:09.323Z</time>
      </trkpt>
      <trkpt lat="43.47501" lon="3.74795">
        <ele>115.72</ele>
        <time>2022-04-27T10:39:19.004Z</time>
      </trkpt>
      <trkpt lat="43.47511" lon="3.74789">
        <ele>116.72</ele>
        <time>2022-04-27T10:39:28.885Z</time>
      </trkpt>
      <trkpt lat="43.4752" lon="3.74792">
        <ele>117.66</ele>
        <time>2022-04-27T10:39:38.062Z</time>
      </trkpt>
      <trkpt lat="43.47522" lon="3.74806">
        <ele>119.72</ele>
        <time>2022-04-27T10:39:47.802Z</time>
      </trkpt>
      <trkpt lat="43.47522" lon="3.74821">
        <ele>120.72</ele>
        <time>2022-04-27T10:39:58.062Z</time>
      </trkpt>
      <trkpt lat="43.47522" lon="3.74837">
        <ele>119.72</ele>
        <time>2022-04-27T10:40:08.026Z</time>
      </trkpt>
      <trkpt lat="43.47521" lon="3.74851">
        <ele>120.72</ele>
        <time>2022-04-27T10:40:17.425Z</time>
      </trkpt>
      <trkpt lat="43.47521" lon="3.74866">
        <ele>120.72</ele>
        <time>2022-04-27T10:40:26.802Z</time>
      </trkpt>
      <trkpt lat="43.47521" lon="3.74871">
        <ele>119.72</ele>
        <time>2022-04-27T10:40:36.000Z</time>
      </trkpt>
      <trkpt lat="43.47522" lon="3.74884">
        <ele>118.72</ele>
        <time>2022-04-27T10:40:45.365Z</time>
      </trkpt>
      <trkpt lat="43.47529" lon="3.74892">
        <ele>118.72</ele>
        <time>2022-04-27T10:40:54.783Z</time>
      </trkpt>
      <trkpt lat="43.47538" lon="3.74893">
        <ele>118.78</ele>
        <time>2022-04-27T10:41:04.000Z</time>
      </trkpt>
      <trkpt lat="43.47548" lon="3.74894">
        <ele>119.72</ele>
        <time>2022-04-27T10:41:13.083Z</time>
      </trkpt>
      <trkpt lat="43.47558" lon="3.74895">
        <ele>120.72</ele>
        <time>2022-04-27T10:41:22.564Z</time>
      </trkpt>
      <trkpt lat="43.47569" lon="3.74895">
        <ele>120.71</ele>
        <time>2022-04-27T10:41:31.822Z</time>
      </trkpt>
      <trkpt lat="43.47578" lon="3.74894">
        <ele>119.97</ele>
        <time>2022-04-27T10:41:41.000Z</time>
      </trkpt>
      <trkpt lat="43.47577" lon="3.74893">
        <ele>118.72</ele>
        <time>2022-04-27T10:41:51.000Z</time>
      </trkpt>
      <trkpt lat="43.47578" lon="3.74895">
        <ele>117.72</ele>
        <time>2022-04-27T10:42:01.605Z</time>
      </trkpt>
      <trkpt lat="43.47582" lon="3.74901">
        <ele>116.72</ele>
        <time>2022-04-27T10:42:11.000Z</time>
      </trkpt>
      <trkpt lat="43.47584" lon="3.749">
        <ele>116.72</ele>
        <time>2022-04-27T10:42:21.000Z</time>
      </trkpt>
      <trkpt lat="43.47584" lon="3.74899">
        <ele>115.97</ele>
        <time>2022-04-27T10:43:05.000Z</time>
      </trkpt>
      <trkpt lat="43.4759" lon="3.74894">
        <ele>116.72</ele>
        <time>2022-04-27T10:43:14.143Z</time>
      </trkpt>
      <trkpt lat="43.47596" lon="3.74893">
        <ele>116.72</ele>
        <time>2022-04-27T10:43:23.583Z</time>
      </trkpt>
      <trkpt lat="43.47604" lon="3.74891">
        <ele>118.7</ele>
        <time>2022-04-27T10:43:33.000Z</time>
      </trkpt>
      <trkpt lat="43.47607" lon="3.74894">
        <ele>117.74</ele>
        <time>2022-04-27T10:43:43.000Z</time>
      </trkpt>
      <trkpt lat="43.47615" lon="3.74894">
        <ele>117.72</ele>
        <time>2022-04-27T10:43:52.583Z</time>
      </trkpt>
      <trkpt lat="43.47614" lon="3.74894">
        <ele>117.72</ele>
        <time>2022-04-27T10:44:02.000Z</time>
      </trkpt>
      <trkpt lat="43.47616" lon="3.74894">
        <ele>118.52</ele>
        <time>2022-04-27T10:44:44.000Z</time>
      </trkpt>
      <trkpt lat="43.47626" lon="3.74894">
        <ele>117.72</ele>
        <time>2022-04-27T10:44:53.423Z</time>
      </trkpt>
      <trkpt lat="43.47636" lon="3.74894">
        <ele>117.72</ele>
        <time>2022-04-27T10:45:02.544Z</time>
      </trkpt>
      <trkpt lat="43.47646" lon="3.74894">
        <ele>115.72</ele>
        <time>2022-04-27T10:45:11.735Z</time>
      </trkpt>
      <trkpt lat="43.47657" lon="3.74896">
        <ele>114.72</ele>
        <time>2022-04-27T10:45:21.802Z</time>
      </trkpt>
      <trkpt lat="43.47667" lon="3.74896">
        <ele>112.72</ele>
        <time>2022-04-27T10:45:30.943Z</time>
      </trkpt>
      <trkpt lat="43.47676" lon="3.74896">
        <ele>111.72</ele>
        <time>2022-04-27T10:45:40.033Z</time>
      </trkpt>
      <trkpt lat="43.47687" lon="3.74896">
        <ele>110.53</ele>
        <time>2022-04-27T10:45:50.003Z</time>
      </trkpt>
      <trkpt lat="43.47698" lon="3.74898">
        <ele>108.72</ele>
        <time>2022-04-27T10:45:59.728Z</time>
      </trkpt>
      <trkpt lat="43.47707" lon="3.74898">
        <ele>107.72</ele>
        <time>2022-04-27T10:46:09.000Z</time>
      </trkpt>
      <trkpt lat="43.47715" lon="3.74888">
        <ele>105.72</ele>
        <time>2022-04-27T10:46:19.000Z</time>
      </trkpt>
      <trkpt lat="43.47716" lon="3.74874">
        <ele>107.47</ele>
        <time>2022-04-27T10:46:28.464Z</time>
      </trkpt>
      <trkpt lat="43.47717" lon="3.74863">
        <ele>108.72</ele>
        <time>2022-04-27T10:46:37.844Z</time>
      </trkpt>
      <trkpt lat="43.47718" lon="3.74849">
        <ele>109.72</ele>
        <time>2022-04-27T10:46:47.343Z</time>
      </trkpt>
      <trkpt lat="43.47718" lon="3.74837">
        <ele>109.72</ele>
        <time>2022-04-27T10:46:56.743Z</time>
      </trkpt>
      <trkpt lat="43.47719" lon="3.74824">
        <ele>111.66</ele>
        <time>2022-04-27T10:47:06.902Z</time>
      </trkpt>
      <trkpt lat="43.4772" lon="3.74811">
        <ele>111.72</ele>
        <time>2022-04-27T10:47:16.026Z</time>
      </trkpt>
      <trkpt lat="43.4772" lon="3.74798">
        <ele>112.72</ele>
        <time>2022-04-27T10:47:25.719Z</time>
      </trkpt>
      <trkpt lat="43.47727" lon="3.74797">
        <ele>113.72</ele>
        <time>2022-04-27T10:47:35.000Z</time>
      </trkpt>
      <trkpt lat="43.47735" lon="3.74798">
        <ele>114.71</ele>
        <time>2022-04-27T10:47:44.523Z</time>
      </trkpt>
      <trkpt lat="43.47744" lon="3.74798">
        <ele>115.72</ele>
        <time>2022-04-27T10:47:53.644Z</time>
      </trkpt>
      <trkpt lat="43.47753" lon="3.74799">
        <ele>117.7</ele>
        <time>2022-04-27T10:48:03.000Z</time>
      </trkpt>
      <trkpt lat="43.47762" lon="3.74801">
        <ele>118.72</ele>
        <time>2022-04-27T10:48:12.443Z</time>
      </trkpt>
      <trkpt lat="43.47771" lon="3.74801">
        <ele>120.65</ele>
        <time>2022-04-27T10:48:21.806Z</time>
      </trkpt>
      <trkpt lat="43.47778" lon="3.74802">
        <ele>121.71</ele>
        <time>2022-04-27T10:48:31.000Z</time>
      </trkpt>
      <trkpt lat="43.47787" lon="3.74801">
        <ele>122.72</ele>
        <time>2022-04-27T10:48:40.063Z</time>
      </trkpt>
      <trkpt lat="43.47796" lon="3.748">
        <ele>124.72</ele>
        <time>2022-04-27T10:48:49.564Z</time>
      </trkpt>
      <trkpt lat="43.47806" lon="3.748">
        <ele>125.72</ele>
        <time>2022-04-27T10:48:59.004Z</time>
      </trkpt>
      <trkpt lat="43.47815" lon="3.74798">
        <ele>125.96</ele>
        <time>2022-04-27T10:49:08.383Z</time>
      </trkpt>
      <trkpt lat="43.47824" lon="3.74796">
        <ele>126.72</ele>
        <time>2022-04-27T10:49:17.802Z</time>
      </trkpt>
      <trkpt lat="43.47833" lon="3.74795">
        <ele>126.72</ele>
        <time>2022-04-27T10:49:27.000Z</time>
      </trkpt>
      <trkpt lat="43.47841" lon="3.7479">
        <ele>127.72</ele>
        <time>2022-04-27T10:49:36.964Z</time>
      </trkpt>
      <trkpt lat="43.47848" lon="3.74784">
        <ele>129.47</ele>
        <time>2022-04-27T10:49:46.000Z</time>
      </trkpt>
      <trkpt lat="43.47852" lon="3.74777">
        <ele>130.72</ele>
        <time>2022-04-27T10:49:55.483Z</time>
      </trkpt>
      <trkpt lat="43.47846" lon="3.74769">
        <ele>131.72</ele>
        <time>2022-04-27T10:50:04.663Z</time>
      </trkpt>
      <trkpt lat="43.47849" lon="3.74762">
        <ele>134.65</ele>
        <time>2022-04-27T10:50:13.883Z</time>
      </trkpt>
      <trkpt lat="43.47851" lon="3.74754">
        <ele>136.65</ele>
        <time>2022-04-27T10:50:23.000Z</time>
      </trkpt>
      <trkpt lat="43.47847" lon="3.74747">
        <ele>136.72</ele>
        <time>2022-04-27T10:50:32.713Z</time>
      </trkpt>
      <trkpt lat="43.47846" lon="3.74737">
        <ele>139.71</ele>
        <time>2022-04-27T10:50:42.361Z</time>
      </trkpt>
      <trkpt lat="43.47843" lon="3.74727">
        <ele>140.71</ele>
        <time>2022-04-27T10:50:51.604Z</time>
      </trkpt>
      <trkpt lat="43.47838" lon="3.74718">
        <ele>141.7</ele>
        <time>2022-04-27T10:51:01.000Z</time>
      </trkpt>
      <trkpt lat="43.47833" lon="3.74707">
        <ele>142.71</ele>
        <time>2022-04-27T10:51:10.584Z</time>
      </trkpt>
      <trkpt lat="43.4783" lon="3.74697">
        <ele>143.7</ele>
        <time>2022-04-27T10:51:19.964Z</time>
      </trkpt>
      <trkpt lat="43.47828" lon="3.74685">
        <ele>145.72</ele>
        <time>2022-04-27T10:51:29.823Z</time>
      </trkpt>
      <trkpt lat="43.47826" lon="3.74674">
        <ele>146.72</ele>
        <time>2022-04-27T10:51:39.000Z</time>
      </trkpt>
      <trkpt lat="43.47827" lon="3.74666">
        <ele>148.7</ele>
        <time>2022-04-27T10:51:48.843Z</time>
      </trkpt>
      <trkpt lat="43.47826" lon="3.74654">
        <ele>149.72</ele>
        <time>2022-04-27T10:51:58.000Z</time>
      </trkpt>
      <trkpt lat="43.47824" lon="3.74641">
        <ele>149.72</ele>
        <time>2022-04-27T10:52:07.845Z</time>
      </trkpt>
      <trkpt lat="43.47827" lon="3.7463">
        <ele>151.47</ele>
        <time>2022-04-27T10:52:17.000Z</time>
      </trkpt>
      <trkpt lat="43.47831" lon="3.74622">
        <ele>151.72</ele>
        <time>2022-04-27T10:52:26.604Z</time>
      </trkpt>
      <trkpt lat="43.4783" lon="3.74611">
        <ele>154.65</ele>
        <time>2022-04-27T10:52:36.073Z</time>
      </trkpt>
      <trkpt lat="43.47829" lon="3.74603">
        <ele>156.71</ele>
        <time>2022-04-27T10:52:45.445Z</time>
      </trkpt>
      <trkpt lat="43.47828" lon="3.74593">
        <ele>157.72</ele>
        <time>2022-04-27T10:52:55.028Z</time>
      </trkpt>
      <trkpt lat="43.47828" lon="3.74582">
        <ele>159.65</ele>
        <time>2022-04-27T10:53:04.602Z</time>
      </trkpt>
      <trkpt lat="43.47831" lon="3.74571">
        <ele>159.71</ele>
        <time>2022-04-27T10:53:14.282Z</time>
      </trkpt>
      <trkpt lat="43.47838" lon="3.74567">
        <ele>160.71</ele>
        <time>2022-04-27T10:53:24.043Z</time>
      </trkpt>
      <trkpt lat="43.47846" lon="3.74566">
        <ele>162.7</ele>
        <time>2022-04-27T10:53:33.863Z</time>
      </trkpt>
      <trkpt lat="43.4785" lon="3.74564">
        <ele>162.78</ele>
        <time>2022-04-27T10:53:43.000Z</time>
      </trkpt>
      <trkpt lat="43.47854" lon="3.74557">
        <ele>163.71</ele>
        <time>2022-04-27T10:53:52.742Z</time>
      </trkpt>
      <trkpt lat="43.4786" lon="3.74547">
        <ele>164.71</ele>
        <time>2022-04-27T10:54:01.883Z</time>
      </trkpt>
      <trkpt lat="43.47866" lon="3.74536">
        <ele>164.71</ele>
        <time>2022-04-27T10:54:11.000Z</time>
      </trkpt>
      <trkpt lat="43.47867" lon="3.74529">
        <ele>165.71</ele>
        <time>2022-04-27T10:54:20.403Z</time>
      </trkpt>
      <trkpt lat="43.47866" lon="3.74528">
        <ele>164.46</ele>
        <time>2022-04-27T10:54:40.842Z</time>
      </trkpt>
      <trkpt lat="43.47867" lon="3.74527">
        <ele>163.71</ele>
        <time>2022-04-27T10:54:53.000Z</time>
      </trkpt>
      <trkpt lat="43.47868" lon="3.74526">
        <ele>164.71</ele>
        <time>2022-04-27T10:55:14.000Z</time>
      </trkpt>
      <trkpt lat="43.4786" lon="3.7451">
        <ele>165.71</ele>
        <time>2022-04-27T10:55:24.000Z</time>
      </trkpt>
      <trkpt lat="43.47856" lon="3.74497">
        <ele>166.71</ele>
        <time>2022-04-27T10:55:33.243Z</time>
      </trkpt>
      <trkpt lat="43.47852" lon="3.74484">
        <ele>168.46</ele>
        <time>2022-04-27T10:55:43.000Z</time>
      </trkpt>
      <trkpt lat="43.47847" lon="3.74472">
        <ele>169.71</ele>
        <time>2022-04-27T10:55:52.562Z</time>
      </trkpt>
      <trkpt lat="43.47843" lon="3.74461">
        <ele>170.71</ele>
        <time>2022-04-27T10:56:02.000Z</time>
      </trkpt>
      <trkpt lat="43.47839" lon="3.7445">
        <ele>171.71</ele>
        <time>2022-04-27T10:56:11.603Z</time>
      </trkpt>
      <trkpt lat="43.47845" lon="3.74443">
        <ele>172.71</ele>
        <time>2022-04-27T10:56:21.000Z</time>
      </trkpt>
      <trkpt lat="43.47851" lon="3.74438">
        <ele>172.7</ele>
        <time>2022-04-27T10:56:30.862Z</time>
      </trkpt>
      <trkpt lat="43.47859" lon="3.74434">
        <ele>173.78</ele>
        <time>2022-04-27T10:56:40.005Z</time>
      </trkpt>
      <trkpt lat="43.47866" lon="3.74434">
        <ele>175.46</ele>
        <time>2022-04-27T10:56:49.364Z</time>
      </trkpt>
      <trkpt lat="43.47872" lon="3.74433">
        <ele>177.65</ele>
        <time>2022-04-27T10:56:59.000Z</time>
      </trkpt>
      <trkpt lat="43.47874" lon="3.74426">
        <ele>179.71</ele>
        <time>2022-04-27T10:57:09.000Z</time>
      </trkpt>
      <trkpt lat="43.47872" lon="3.74424">
        <ele>180.71</ele>
        <time>2022-04-27T10:57:19.000Z</time>
      </trkpt>
      <trkpt lat="43.47872" lon="3.74424">
        <ele>181.71</ele>
        <time>2022-04-27T10:57:29.000Z</time>
      </trkpt>
      <trkpt lat="43.47871" lon="3.74424">
        <ele>181.71</ele>
        <time>2022-04-27T10:58:31.774Z</time>
      </trkpt>
      <trkpt lat="43.4786" lon="3.74418">
        <ele>182.71</ele>
        <time>2022-04-27T10:58:41.000Z</time>
      </trkpt>
      <trkpt lat="43.47853" lon="3.74413">
        <ele>183.65</ele>
        <time>2022-04-27T10:58:50.012Z</time>
      </trkpt>
      <trkpt lat="43.47845" lon="3.74403">
        <ele>184.71</ele>
        <time>2022-04-27T10:59:00.000Z</time>
      </trkpt>
      <trkpt lat="43.47837" lon="3.74393">
        <ele>184.7</ele>
        <time>2022-04-27T10:59:09.446Z</time>
      </trkpt>
      <trkpt lat="43.47832" lon="3.7438">
        <ele>185.7</ele>
        <time>2022-04-27T10:59:18.642Z</time>
      </trkpt>
      <trkpt lat="43.47831" lon="3.7438">
        <ele>185.71</ele>
        <time>2022-04-27T10:59:28.000Z</time>
      </trkpt>
      <trkpt lat="43.4783" lon="3.74378">
        <ele>184.71</ele>
        <time>2022-04-27T11:00:08.000Z</time>
      </trkpt>
      <trkpt lat="43.47828" lon="3.74372">
        <ele>185.7</ele>
        <time>2022-04-27T11:00:17.031Z</time>
      </trkpt>
      <trkpt lat="43.47822" lon="3.74365">
        <ele>186.48</ele>
        <time>2022-04-27T11:00:27.000Z</time>
      </trkpt>
      <trkpt lat="43.47822" lon="3.74362">
        <ele>185.71</ele>
        <time>2022-04-27T11:00:37.000Z</time>
      </trkpt>
      <trkpt lat="43.4782" lon="3.74356">
        <ele>185.71</ele>
        <time>2022-04-27T11:00:46.702Z</time>
      </trkpt>
      <trkpt lat="43.47819" lon="3.74365">
        <ele>184.71</ele>
        <time>2022-04-27T11:00:56.062Z</time>
      </trkpt>
      <trkpt lat="43.47812" lon="3.74364">
        <ele>185.71</ele>
        <time>2022-04-27T11:01:05.944Z</time>
      </trkpt>
      <trkpt lat="43.47806" lon="3.74362">
        <ele>184.71</ele>
        <time>2022-04-27T11:01:14.963Z</time>
      </trkpt>
      <trkpt lat="43.478" lon="3.74367">
        <ele>184.71</ele>
        <time>2022-04-27T11:01:24.041Z</time>
      </trkpt>
      <trkpt lat="43.47795" lon="3.74369">
        <ele>184.71</ele>
        <time>2022-04-27T11:01:33.714Z</time>
      </trkpt>
      <trkpt lat="43.47787" lon="3.74371">
        <ele>184.71</ele>
        <time>2022-04-27T11:01:43.772Z</time>
      </trkpt>
      <trkpt lat="43.4778" lon="3.74374">
        <ele>183.72</ele>
        <time>2022-04-27T11:01:54.000Z</time>
      </trkpt>
      <trkpt lat="43.47777" lon="3.74375">
        <ele>183.65</ele>
        <time>2022-04-27T11:02:03.642Z</time>
      </trkpt>
      <trkpt lat="43.47767" lon="3.74378">
        <ele>183.71</ele>
        <time>2022-04-27T11:02:13.201Z</time>
      </trkpt>
      <trkpt lat="43.4776" lon="3.7438">
        <ele>183.71</ele>
        <time>2022-04-27T11:02:22.758Z</time>
      </trkpt>
      <trkpt lat="43.47749" lon="3.74383">
        <ele>181.78</ele>
        <time>2022-04-27T11:02:32.000Z</time>
      </trkpt>
      <trkpt lat="43.47739" lon="3.74386">
        <ele>180.72</ele>
        <time>2022-04-27T11:02:41.503Z</time>
      </trkpt>
      <trkpt lat="43.47732" lon="3.74386">
        <ele>178.72</ele>
        <time>2022-04-27T11:02:50.602Z</time>
      </trkpt>
      <trkpt lat="43.4772" lon="3.74383">
        <ele>178.72</ele>
        <time>2022-04-27T11:02:59.803Z</time>
      </trkpt>
      <trkpt lat="43.4771" lon="3.7438">
        <ele>176.03</ele>
        <time>2022-04-27T11:03:09.000Z</time>
      </trkpt>
      <trkpt lat="43.47702" lon="3.74375">
        <ele>174.72</ele>
        <time>2022-04-27T11:03:18.043Z</time>
      </trkpt>
      <trkpt lat="43.47694" lon="3.7437">
        <ele>171.73</ele>
        <time>2022-04-27T11:03:27.604Z</time>
      </trkpt>
      <trkpt lat="43.47685" lon="3.74367">
        <ele>170.72</ele>
        <time>2022-04-27T11:03:37.000Z</time>
      </trkpt>
      <trkpt lat="43.47676" lon="3.74365">
        <ele>167.72</ele>
        <time>2022-04-27T11:03:46.662Z</time>
      </trkpt>
      <trkpt lat="43.47673" lon="3.74365">
        <ele>165.78</ele>
        <time>2022-04-27T11:03:56.000Z</time>
      </trkpt>
      <trkpt lat="43.47667" lon="3.74364">
        <ele>163.73</ele>
        <time>2022-04-27T11:04:05.783Z</time>
      </trkpt>
      <trkpt lat="43.47663" lon="3.74362">
        <ele>162.72</ele>
        <time>2022-04-27T11:04:15.082Z</time>
      </trkpt>
      <trkpt lat="43.47658" lon="3.74363">
        <ele>161.72</ele>
        <time>2022-04-27T11:04:24.622Z</time>
      </trkpt>
      <trkpt lat="43.4765" lon="3.74364">
        <ele>160.72</ele>
        <time>2022-04-27T11:04:33.923Z</time>
      </trkpt>
      <trkpt lat="43.47644" lon="3.74361">
        <ele>159.72</ele>
        <time>2022-04-27T11:04:43.023Z</time>
      </trkpt>
      <trkpt lat="43.47637" lon="3.74359">
        <ele>156.97</ele>
        <time>2022-04-27T11:04:52.364Z</time>
      </trkpt>
      <trkpt lat="43.47633" lon="3.74358">
        <ele>154.72</ele>
        <time>2022-04-27T11:05:01.964Z</time>
      </trkpt>
      <trkpt lat="43.47627" lon="3.74354">
        <ele>153.72</ele>
        <time>2022-04-27T11:05:11.564Z</time>
      </trkpt>
      <trkpt lat="43.47622" lon="3.7435">
        <ele>152.72</ele>
        <time>2022-04-27T11:05:20.762Z</time>
      </trkpt>
      <trkpt lat="43.47616" lon="3.74348">
        <ele>149.78</ele>
        <time>2022-04-27T11:05:30.904Z</time>
      </trkpt>
      <trkpt lat="43.47609" lon="3.74343">
        <ele>148.78</ele>
        <time>2022-04-27T11:05:40.885Z</time>
      </trkpt>
      <trkpt lat="43.47601" lon="3.74339">
        <ele>147.71</ele>
        <time>2022-04-27T11:05:50.223Z</time>
      </trkpt>
      <trkpt lat="43.47592" lon="3.74335">
        <ele>146.72</ele>
        <time>2022-04-27T11:05:59.902Z</time>
      </trkpt>
      <trkpt lat="43.47587" lon="3.74331">
        <ele>147.71</ele>
        <time>2022-04-27T11:06:09.000Z</time>
      </trkpt>
      <trkpt lat="43.4758" lon="3.74327">
        <ele>149.7</ele>
        <time>2022-04-27T11:06:18.642Z</time>
      </trkpt>
      <trkpt lat="43.47575" lon="3.74323">
        <ele>149.72</ele>
        <time>2022-04-27T11:06:27.704Z</time>
      </trkpt>
      <trkpt lat="43.47571" lon="3.74318">
        <ele>150.72</ele>
        <time>2022-04-27T11:06:37.000Z</time>
      </trkpt>
      <trkpt lat="43.47567" lon="3.7431">
        <ele>150.72</ele>
        <time>2022-04-27T11:06:46.770Z</time>
      </trkpt>
      <trkpt lat="43.47564" lon="3.74307">
        <ele>151.72</ele>
        <time>2022-04-27T11:06:56.442Z</time>
      </trkpt>
      <trkpt lat="43.4756" lon="3.74303">
        <ele>153.71</ele>
        <time>2022-04-27T11:07:05.769Z</time>
      </trkpt>
      <trkpt lat="43.47555" lon="3.743">
        <ele>154.72</ele>
        <time>2022-04-27T11:07:15.000Z</time>
      </trkpt>
      <trkpt lat="43.47552" lon="3.74297">
        <ele>156.47</ele>
        <time>2022-04-27T11:07:24.583Z</time>
      </trkpt>
      <trkpt lat="43.47548" lon="3.74292">
        <ele>158.71</ele>
        <time>2022-04-27T11:07:34.030Z</time>
      </trkpt>
      <trkpt lat="43.47544" lon="3.74287">
        <ele>160.59</ele>
        <time>2022-04-27T11:07:43.904Z</time>
      </trkpt>
      <trkpt lat="43.4754" lon="3.74283">
        <ele>161.72</ele>
        <time>2022-04-27T11:07:53.000Z</time>
      </trkpt>
      <trkpt lat="43.47535" lon="3.74281">
        <ele>163.71</ele>
        <time>2022-04-27T11:08:03.022Z</time>
      </trkpt>
      <trkpt lat="43.4753" lon="3.7428">
        <ele>164.72</ele>
        <time>2022-04-27T11:08:12.385Z</time>
      </trkpt>
      <trkpt lat="43.47521" lon="3.74279">
        <ele>165.73</ele>
        <time>2022-04-27T11:08:21.883Z</time>
      </trkpt>
      <trkpt lat="43.47515" lon="3.7427">
        <ele>166.72</ele>
        <time>2022-04-27T11:08:30.884Z</time>
      </trkpt>
      <trkpt lat="43.4751" lon="3.74261">
        <ele>167.72</ele>
        <time>2022-04-27T11:08:40.544Z</time>
      </trkpt>
      <trkpt lat="43.47503" lon="3.74254">
        <ele>169.71</ele>
        <time>2022-04-27T11:08:50.000Z</time>
      </trkpt>
      <trkpt lat="43.47496" lon="3.74252">
        <ele>172.65</ele>
        <time>2022-04-27T11:08:59.004Z</time>
      </trkpt>
      <trkpt lat="43.47488" lon="3.74243">
        <ele>172.72</ele>
        <time>2022-04-27T11:09:08.782Z</time>
      </trkpt>
      <trkpt lat="43.47485" lon="3.7424">
        <ele>172.72</ele>
        <time>2022-04-27T11:09:18.000Z</time>
      </trkpt>
      <trkpt lat="43.47483" lon="3.74239">
        <ele>172.72</ele>
        <time>2022-04-27T11:09:28.000Z</time>
      </trkpt>
      <trkpt lat="43.47482" lon="3.74238">
        <ele>172.72</ele>
        <time>2022-04-27T11:09:39.000Z</time>
      </trkpt>
      <trkpt lat="43.47477" lon="3.74237">
        <ele>171.72</ele>
        <time>2022-04-27T11:09:48.222Z</time>
      </trkpt>
      <trkpt lat="43.47468" lon="3.74246">
        <ele>172.72</ele>
        <time>2022-04-27T11:09:57.902Z</time>
      </trkpt>
      <trkpt lat="43.4746" lon="3.74252">
        <ele>172.72</ele>
        <time>2022-04-27T11:10:07.324Z</time>
      </trkpt>
      <trkpt lat="43.47451" lon="3.74255">
        <ele>173.71</ele>
        <time>2022-04-27T11:10:16.704Z</time>
      </trkpt>
      <trkpt lat="43.47442" lon="3.74255">
        <ele>172.72</ele>
        <time>2022-04-27T11:10:25.842Z</time>
      </trkpt>
      <trkpt lat="43.4744" lon="3.74255">
        <ele>171.78</ele>
        <time>2022-04-27T11:10:35.000Z</time>
      </trkpt>
      <trkpt lat="43.47439" lon="3.74254">
        <ele>171.72</ele>
        <time>2022-04-27T11:11:04.000Z</time>
      </trkpt>
      <trkpt lat="43.47438" lon="3.74254">
        <ele>171.72</ele>
        <time>2022-04-27T11:11:14.000Z</time>
      </trkpt>
      <trkpt lat="43.47437" lon="3.74254">
        <ele>170.73</ele>
        <time>2022-04-27T11:11:38.424Z</time>
      </trkpt>
      <trkpt lat="43.47428" lon="3.74257">
        <ele>170.72</ele>
        <time>2022-04-27T11:11:47.665Z</time>
      </trkpt>
      <trkpt lat="43.47421" lon="3.74259">
        <ele>169.72</ele>
        <time>2022-04-27T11:11:56.774Z</time>
      </trkpt>
      <trkpt lat="43.4741" lon="3.74258">
        <ele>171.71</ele>
        <time>2022-04-27T11:12:06.000Z</time>
      </trkpt>
      <trkpt lat="43.47399" lon="3.74249">
        <ele>171.47</ele>
        <time>2022-04-27T11:12:15.225Z</time>
      </trkpt>
      <trkpt lat="43.4739" lon="3.74248">
        <ele>171.47</ele>
        <time>2022-04-27T11:12:24.644Z</time>
      </trkpt>
      <trkpt lat="43.47381" lon="3.74246">
        <ele>171.72</ele>
        <time>2022-04-27T11:12:34.063Z</time>
      </trkpt>
      <trkpt lat="43.47373" lon="3.74241">
        <ele>171.78</ele>
        <time>2022-04-27T11:12:43.504Z</time>
      </trkpt>
      <trkpt lat="43.47364" lon="3.74241">
        <ele>171.95</ele>
        <time>2022-04-27T11:12:52.643Z</time>
      </trkpt>
      <trkpt lat="43.47358" lon="3.7424">
        <ele>171.72</ele>
        <time>2022-04-27T11:13:01.750Z</time>
      </trkpt>
      <trkpt lat="43.47357" lon="3.74241">
        <ele>171.72</ele>
        <time>2022-04-27T11:13:11.000Z</time>
      </trkpt>
      <trkpt lat="43.47357" lon="3.74239">
        <ele>171.72</ele>
        <time>2022-04-27T11:13:20.615Z</time>
      </trkpt>
      <trkpt lat="43.47358" lon="3.74238">
        <ele>171.72</ele>
        <time>2022-04-27T11:13:30.000Z</time>
      </trkpt>
      <trkpt lat="43.47358" lon="3.74241">
        <ele>171.72</ele>
        <time>2022-04-27T11:13:50.028Z</time>
      </trkpt>
      <trkpt lat="43.47358" lon="3.74242">
        <ele>171.72</ele>
        <time>2022-04-27T11:14:00.000Z</time>
      </trkpt>
      <trkpt lat="43.47359" lon="3.74244">
        <ele>172.72</ele>
        <time>2022-04-27T11:14:20.000Z</time>
      </trkpt>
      <trkpt lat="43.47351" lon="3.74246">
        <ele>173.72</ele>
        <time>2022-04-27T11:14:30.000Z</time>
      </trkpt>
      <trkpt lat="43.47344" lon="3.74242">
        <ele>173.72</ele>
        <time>2022-04-27T11:14:39.088Z</time>
      </trkpt>
      <trkpt lat="43.47335" lon="3.74236">
        <ele>175.66</ele>
        <time>2022-04-27T11:14:48.624Z</time>
      </trkpt>
      <trkpt lat="43.47326" lon="3.74236">
        <ele>175.72</ele>
        <time>2022-04-27T11:14:57.703Z</time>
      </trkpt>
      <trkpt lat="43.47315" lon="3.74235">
        <ele>176.66</ele>
        <time>2022-04-27T11:15:07.643Z</time>
      </trkpt>
      <trkpt lat="43.47306" lon="3.74232">
        <ele>176.72</ele>
        <time>2022-04-27T11:15:16.923Z</time>
      </trkpt>
      <trkpt lat="43.47297" lon="3.7423">
        <ele>175.72</ele>
        <time>2022-04-27T11:15:26.000Z</time>
      </trkpt>
      <trkpt lat="43.47288" lon="3.74229">
        <ele>175.72</ele>
        <time>2022-04-27T11:15:35.582Z</time>
      </trkpt>
      <trkpt lat="43.47277" lon="3.74227">
        <ele>173.72</ele>
        <time>2022-04-27T11:15:44.783Z</time>
      </trkpt>
      <trkpt lat="43.47268" lon="3.74227">
        <ele>172.97</ele>
        <time>2022-04-27T11:15:53.904Z</time>
      </trkpt>
      <trkpt lat="43.47261" lon="3.74227">
        <ele>171.72</ele>
        <time>2022-04-27T11:16:03.000Z</time>
      </trkpt>
      <trkpt lat="43.47251" lon="3.74231">
        <ele>170.72</ele>
        <time>2022-04-27T11:16:12.885Z</time>
      </trkpt>
      <trkpt lat="43.47244" lon="3.74236">
        <ele>170.72</ele>
        <time>2022-04-27T11:16:22.683Z</time>
      </trkpt>
      <trkpt lat="43.47236" lon="3.74242">
        <ele>169.72</ele>
        <time>2022-04-27T11:16:32.000Z</time>
      </trkpt>
      <trkpt lat="43.47226" lon="3.74244">
        <ele>168.72</ele>
        <time>2022-04-27T11:16:42.000Z</time>
      </trkpt>
      <trkpt lat="43.47228" lon="3.74245">
        <ele>167.72</ele>
        <time>2022-04-27T11:16:52.000Z</time>
      </trkpt>
      <trkpt lat="43.47227" lon="3.74246">
        <ele>166.72</ele>
        <time>2022-04-27T11:17:04.000Z</time>
      </trkpt>
      <trkpt lat="43.47227" lon="3.74245">
        <ele>166.72</ele>
        <time>2022-04-27T11:17:21.000Z</time>
      </trkpt>
      <trkpt lat="43.47227" lon="3.74246">
        <ele>166.72</ele>
        <time>2022-04-27T11:17:39.082Z</time>
      </trkpt>
      <trkpt lat="43.47218" lon="3.74246">
        <ele>167.71</ele>
        <time>2022-04-27T11:17:48.982Z</time>
      </trkpt>
      <trkpt lat="43.47206" lon="3.74244">
        <ele>166.74</ele>
        <time>2022-04-27T11:17:58.803Z</time>
      </trkpt>
      <trkpt lat="43.47198" lon="3.74242">
        <ele>167.72</ele>
        <time>2022-04-27T11:18:08.000Z</time>
      </trkpt>
      <trkpt lat="43.47188" lon="3.74243">
        <ele>168.71</ele>
        <time>2022-04-27T11:18:17.502Z</time>
      </trkpt>
      <trkpt lat="43.47178" lon="3.74245">
        <ele>169.72</ele>
        <time>2022-04-27T11:18:27.000Z</time>
      </trkpt>
      <trkpt lat="43.47167" lon="3.74245">
        <ele>170.72</ele>
        <time>2022-04-27T11:18:36.782Z</time>
      </trkpt>
      <trkpt lat="43.47158" lon="3.7424">
        <ele>169.73</ele>
        <time>2022-04-27T11:18:46.052Z</time>
      </trkpt>
      <trkpt lat="43.47152" lon="3.74238">
        <ele>169.72</ele>
        <time>2022-04-27T11:18:56.063Z</time>
      </trkpt>
      <trkpt lat="43.47148" lon="3.74236">
        <ele>169.67</ele>
        <time>2022-04-27T11:19:06.000Z</time>
      </trkpt>
      <trkpt lat="43.47147" lon="3.74236">
        <ele>168.73</ele>
        <time>2022-04-27T11:19:15.770Z</time>
      </trkpt>
      <trkpt lat="43.47144" lon="3.74236">
        <ele>167.74</ele>
        <time>2022-04-27T11:19:25.000Z</time>
      </trkpt>
      <trkpt lat="43.47143" lon="3.74237">
        <ele>167.72</ele>
        <time>2022-04-27T11:19:35.000Z</time>
      </trkpt>
      <trkpt lat="43.47144" lon="3.74237">
        <ele>165.71</ele>
        <time>2022-04-27T11:25:06.000Z</time>
      </trkpt>
      <trkpt lat="43.47143" lon="3.74237">
        <ele>165.71</ele>
        <time>2022-04-27T11:29:42.904Z</time>
      </trkpt>
      <trkpt lat="43.4714" lon="3.74236">
        <ele>167.47</ele>
        <time>2022-04-27T11:29:52.000Z</time>
      </trkpt>
      <trkpt lat="43.47137" lon="3.74237">
        <ele>167.72</ele>
        <time>2022-04-27T11:30:02.000Z</time>
      </trkpt>
      <trkpt lat="43.47134" lon="3.74234">
        <ele>167.72</ele>
        <time>2022-04-27T11:30:12.000Z</time>
      </trkpt>
      <trkpt lat="43.47128" lon="3.74229">
        <ele>166.72</ele>
        <time>2022-04-27T11:30:21.664Z</time>
      </trkpt>
      <trkpt lat="43.47124" lon="3.74227">
        <ele>165.72</ele>
        <time>2022-04-27T11:30:30.942Z</time>
      </trkpt>
      <trkpt lat="43.47115" lon="3.74225">
        <ele>164.72</ele>
        <time>2022-04-27T11:30:41.000Z</time>
      </trkpt>
      <trkpt lat="43.47108" lon="3.74225">
        <ele>162.97</ele>
        <time>2022-04-27T11:30:51.000Z</time>
      </trkpt>
      <trkpt lat="43.47107" lon="3.74225">
        <ele>162.72</ele>
        <time>2022-04-27T11:31:00.775Z</time>
      </trkpt>
      <trkpt lat="43.47098" lon="3.74224">
        <ele>161.72</ele>
        <time>2022-04-27T11:31:10.602Z</time>
      </trkpt>
      <trkpt lat="43.4709" lon="3.74222">
        <ele>159.97</ele>
        <time>2022-04-27T11:31:20.758Z</time>
      </trkpt>
      <trkpt lat="43.47084" lon="3.7422">
        <ele>158.72</ele>
        <time>2022-04-27T11:31:29.775Z</time>
      </trkpt>
      <trkpt lat="43.47077" lon="3.74223">
        <ele>158.72</ele>
        <time>2022-04-27T11:31:38.983Z</time>
      </trkpt>
      <trkpt lat="43.4707" lon="3.74224">
        <ele>156.72</ele>
        <time>2022-04-27T11:31:48.000Z</time>
      </trkpt>
      <trkpt lat="43.47061" lon="3.74226">
        <ele>156.72</ele>
        <time>2022-04-27T11:31:57.344Z</time>
      </trkpt>
      <trkpt lat="43.47053" lon="3.74225">
        <ele>154.73</ele>
        <time>2022-04-27T11:32:06.863Z</time>
      </trkpt>
      <trkpt lat="43.47045" lon="3.74223">
        <ele>152.97</ele>
        <time>2022-04-27T11:32:17.004Z</time>
      </trkpt>
      <trkpt lat="43.4704" lon="3.74221">
        <ele>150.97</ele>
        <time>2022-04-27T11:32:26.603Z</time>
      </trkpt>
      <trkpt lat="43.47033" lon="3.74219">
        <ele>148.74</ele>
        <time>2022-04-27T11:32:36.003Z</time>
      </trkpt>
      <trkpt lat="43.47022" lon="3.74222">
        <ele>147.72</ele>
        <time>2022-04-27T11:32:45.770Z</time>
      </trkpt>
      <trkpt lat="43.47015" lon="3.74228">
        <ele>147.72</ele>
        <time>2022-04-27T11:32:54.843Z</time>
      </trkpt>
      <trkpt lat="43.4701" lon="3.74232">
        <ele>144.74</ele>
        <time>2022-04-27T11:33:03.984Z</time>
      </trkpt>
      <trkpt lat="43.47001" lon="3.74235">
        <ele>141.79</ele>
        <time>2022-04-27T11:33:13.000Z</time>
      </trkpt>
      <trkpt lat="43.46994" lon="3.7424">
        <ele>140.72</ele>
        <time>2022-04-27T11:33:22.004Z</time>
      </trkpt>
      <trkpt lat="43.46987" lon="3.74251">
        <ele>138.72</ele>
        <time>2022-04-27T11:33:31.703Z</time>
      </trkpt>
      <trkpt lat="43.46985" lon="3.74257">
        <ele>137.72</ele>
        <time>2022-04-27T11:33:40.774Z</time>
      </trkpt>
      <trkpt lat="43.4698" lon="3.74267">
        <ele>135.73</ele>
        <time>2022-04-27T11:33:49.884Z</time>
      </trkpt>
      <trkpt lat="43.46974" lon="3.74274">
        <ele>134.72</ele>
        <time>2022-04-27T11:33:59.002Z</time>
      </trkpt>
      <trkpt lat="43.46966" lon="3.74281">
        <ele>131.79</ele>
        <time>2022-04-27T11:34:08.862Z</time>
      </trkpt>
      <trkpt lat="43.46958" lon="3.74287">
        <ele>130.72</ele>
        <time>2022-04-27T11:34:18.264Z</time>
      </trkpt>
      <trkpt lat="43.46951" lon="3.74295">
        <ele>128.72</ele>
        <time>2022-04-27T11:34:27.282Z</time>
      </trkpt>
      <trkpt lat="43.46946" lon="3.74304">
        <ele>127.72</ele>
        <time>2022-04-27T11:34:36.603Z</time>
      </trkpt>
      <trkpt lat="43.4694" lon="3.74314">
        <ele>125.73</ele>
        <time>2022-04-27T11:34:46.000Z</time>
      </trkpt>
      <trkpt lat="43.46934" lon="3.74325">
        <ele>124.73</ele>
        <time>2022-04-27T11:34:55.522Z</time>
      </trkpt>
      <trkpt lat="43.46932" lon="3.74329">
        <ele>123.79</ele>
        <time>2022-04-27T11:35:04.825Z</time>
      </trkpt>
      <trkpt lat="43.46932" lon="3.7433">
        <ele>121.97</ele>
        <time>2022-04-27T11:35:15.000Z</time>
      </trkpt>
      <trkpt lat="43.46932" lon="3.74332">
        <ele>121.72</ele>
        <time>2022-04-27T11:35:24.852Z</time>
      </trkpt>
      <trkpt lat="43.46933" lon="3.74332">
        <ele>121.72</ele>
        <time>2022-04-27T11:35:42.583Z</time>
      </trkpt>
      <trkpt lat="43.46936" lon="3.74349">
        <ele>120.72</ele>
        <time>2022-04-27T11:35:52.030Z</time>
      </trkpt>
      <trkpt lat="43.46938" lon="3.74358">
        <ele>120.72</ele>
        <time>2022-04-27T11:36:01.043Z</time>
      </trkpt>
      <trkpt lat="43.46939" lon="3.74369">
        <ele>119.73</ele>
        <time>2022-04-27T11:36:10.464Z</time>
      </trkpt>
      <trkpt lat="43.46943" lon="3.7438">
        <ele>118.73</ele>
        <time>2022-04-27T11:36:19.504Z</time>
      </trkpt>
      <trkpt lat="43.46945" lon="3.74392">
        <ele>116.74</ele>
        <time>2022-04-27T11:36:28.584Z</time>
      </trkpt>
      <trkpt lat="43.46949" lon="3.74401">
        <ele>114.74</ele>
        <time>2022-04-27T11:36:37.644Z</time>
      </trkpt>
      <trkpt lat="43.46952" lon="3.74411">
        <ele>113.73</ele>
        <time>2022-04-27T11:36:46.684Z</time>
      </trkpt>
      <trkpt lat="43.46953" lon="3.74422">
        <ele>111.98</ele>
        <time>2022-04-27T11:36:55.823Z</time>
      </trkpt>
      <trkpt lat="43.46956" lon="3.74433">
        <ele>110.73</ele>
        <time>2022-04-27T11:37:05.009Z</time>
      </trkpt>
      <trkpt lat="43.46959" lon="3.74443">
        <ele>108.79</ele>
        <time>2022-04-27T11:37:14.822Z</time>
      </trkpt>
      <trkpt lat="43.46961" lon="3.74454">
        <ele>107.74</ele>
        <time>2022-04-27T11:37:24.183Z</time>
      </trkpt>
      <trkpt lat="43.46962" lon="3.74464">
        <ele>104.73</ele>
        <time>2022-04-27T11:37:33.442Z</time>
      </trkpt>
      <trkpt lat="43.46967" lon="3.74477">
        <ele>102.79</ele>
        <time>2022-04-27T11:37:42.762Z</time>
      </trkpt>
      <trkpt lat="43.46971" lon="3.74487">
        <ele>100.98</ele>
        <time>2022-04-27T11:37:52.042Z</time>
      </trkpt>
      <trkpt lat="43.4698" lon="3.7449">
        <ele>98.73</ele>
        <time>2022-04-27T11:38:01.763Z</time>
      </trkpt>
      <trkpt lat="43.46989" lon="3.74493">
        <ele>97.73</ele>
        <time>2022-04-27T11:38:11.771Z</time>
      </trkpt>
      <trkpt lat="43.46995" lon="3.74501">
        <ele>94.79</ele>
        <time>2022-04-27T11:38:20.773Z</time>
      </trkpt>
      <trkpt lat="43.46999" lon="3.74511">
        <ele>94.73</ele>
        <time>2022-04-27T11:38:30.000Z</time>
      </trkpt>
      <trkpt lat="43.47003" lon="3.74524">
        <ele>93.79</ele>
        <time>2022-04-27T11:38:39.862Z</time>
      </trkpt>
      <trkpt lat="43.47004" lon="3.74535">
        <ele>93.73</ele>
        <time>2022-04-27T11:38:48.924Z</time>
      </trkpt>
      <trkpt lat="43.47006" lon="3.74547">
        <ele>92.79</ele>
        <time>2022-04-27T11:38:58.062Z</time>
      </trkpt>
      <trkpt lat="43.47005" lon="3.7456">
        <ele>90.98</ele>
        <time>2022-04-27T11:39:07.602Z</time>
      </trkpt>
      <trkpt lat="43.47001" lon="3.74571">
        <ele>89.73</ele>
        <time>2022-04-27T11:39:16.945Z</time>
      </trkpt>
      <trkpt lat="43.46995" lon="3.74581">
        <ele>87.74</ele>
        <time>2022-04-27T11:39:26.584Z</time>
      </trkpt>
      <trkpt lat="43.46987" lon="3.7459">
        <ele>87.73</ele>
        <time>2022-04-27T11:39:35.782Z</time>
      </trkpt>
      <trkpt lat="43.4698" lon="3.74598">
        <ele>86.72</ele>
        <time>2022-04-27T11:39:44.925Z</time>
      </trkpt>
      <trkpt lat="43.46973" lon="3.74607">
        <ele>86.73</ele>
        <time>2022-04-27T11:39:54.000Z</time>
      </trkpt>
      <trkpt lat="43.46964" lon="3.74617">
        <ele>86.73</ele>
        <time>2022-04-27T11:40:03.882Z</time>
      </trkpt>
      <trkpt lat="43.46955" lon="3.74624">
        <ele>85.79</ele>
        <time>2022-04-27T11:40:13.004Z</time>
      </trkpt>
      <trkpt lat="43.46946" lon="3.74628">
        <ele>85.73</ele>
        <time>2022-04-27T11:40:22.645Z</time>
      </trkpt>
      <trkpt lat="43.46935" lon="3.74635">
        <ele>85.73</ele>
        <time>2022-04-27T11:40:32.043Z</time>
      </trkpt>
      <trkpt lat="43.46923" lon="3.74641">
        <ele>84.98</ele>
        <time>2022-04-27T11:40:41.981Z</time>
      </trkpt>
      <trkpt lat="43.46914" lon="3.74648">
        <ele>84.73</ele>
        <time>2022-04-27T11:40:51.000Z</time>
      </trkpt>
      <trkpt lat="43.46905" lon="3.74657">
        <ele>83.74</ele>
        <time>2022-04-27T11:41:01.000Z</time>
      </trkpt>
      <trkpt lat="43.46895" lon="3.74665">
        <ele>82.92</ele>
        <time>2022-04-27T11:41:11.000Z</time>
      </trkpt>
      <trkpt lat="43.46894" lon="3.74666">
        <ele>81.98</ele>
        <time>2022-04-27T11:41:21.000Z</time>
      </trkpt>
      <trkpt lat="43.46888" lon="3.74669">
        <ele>81.72</ele>
        <time>2022-04-27T11:41:30.882Z</time>
      </trkpt>
      <trkpt lat="43.46882" lon="3.74673">
        <ele>80.73</ele>
        <time>2022-04-27T11:41:39.965Z</time>
      </trkpt>
      <trkpt lat="43.46873" lon="3.74678">
        <ele>80.73</ele>
        <time>2022-04-27T11:41:49.000Z</time>
      </trkpt>
      <trkpt lat="43.46864" lon="3.74683">
        <ele>79.73</ele>
        <time>2022-04-27T11:41:58.797Z</time>
      </trkpt>
      <trkpt lat="43.46852" lon="3.74692">
        <ele>78.73</ele>
        <time>2022-04-27T11:42:08.000Z</time>
      </trkpt>
      <trkpt lat="43.46843" lon="3.74701">
        <ele>76.68</ele>
        <time>2022-04-27T11:42:17.003Z</time>
      </trkpt>
      <trkpt lat="43.46834" lon="3.74712">
        <ele>73.74</ele>
        <time>2022-04-27T11:42:26.463Z</time>
      </trkpt>
      <trkpt lat="43.46825" lon="3.74722">
        <ele>72.73</ele>
        <time>2022-04-27T11:42:35.966Z</time>
      </trkpt>
      <trkpt lat="43.46817" lon="3.74736">
        <ele>70.92</ele>
        <time>2022-04-27T11:42:45.882Z</time>
      </trkpt>
      <trkpt lat="43.4681" lon="3.74748">
        <ele>69.98</ele>
        <time>2022-04-27T11:42:55.922Z</time>
      </trkpt>
      <trkpt lat="43.46806" lon="3.7476">
        <ele>69.73</ele>
        <time>2022-04-27T11:43:04.985Z</time>
      </trkpt>
      <trkpt lat="43.46795" lon="3.74768">
        <ele>68.73</ele>
        <time>2022-04-27T11:43:14.810Z</time>
      </trkpt>
      <trkpt lat="43.46787" lon="3.74772">
        <ele>67.73</ele>
        <time>2022-04-27T11:43:24.003Z</time>
      </trkpt>
      <trkpt lat="43.46776" lon="3.74773">
        <ele>66.79</ele>
        <time>2022-04-27T11:43:33.484Z</time>
      </trkpt>
      <trkpt lat="43.46765" lon="3.74773">
        <ele>65.72</ele>
        <time>2022-04-27T11:43:42.723Z</time>
      </trkpt>
      <trkpt lat="43.46754" lon="3.74772">
        <ele>65.73</ele>
        <time>2022-04-27T11:43:52.000Z</time>
      </trkpt>
      <trkpt lat="43.46744" lon="3.74768">
        <ele>65.73</ele>
        <time>2022-04-27T11:44:01.002Z</time>
      </trkpt>
      <trkpt lat="43.46734" lon="3.74759">
        <ele>66.73</ele>
        <time>2022-04-27T11:44:10.744Z</time>
      </trkpt>
      <trkpt lat="43.46725" lon="3.74751">
        <ele>66.73</ele>
        <time>2022-04-27T11:44:19.964Z</time>
      </trkpt>
      <trkpt lat="43.46717" lon="3.74748">
        <ele>67.5</ele>
        <time>2022-04-27T11:44:29.000Z</time>
      </trkpt>
      <trkpt lat="43.46705" lon="3.74744">
        <ele>66.73</ele>
        <time>2022-04-27T11:44:39.000Z</time>
      </trkpt>
      <trkpt lat="43.46698" lon="3.74744">
        <ele>67.73</ele>
        <time>2022-04-27T11:44:49.000Z</time>
      </trkpt>
      <trkpt lat="43.46695" lon="3.74743">
        <ele>64.73</ele>
        <time>2022-04-27T11:44:59.000Z</time>
      </trkpt>
      <trkpt lat="43.46693" lon="3.74744">
        <ele>64.73</ele>
        <time>2022-04-27T11:45:09.000Z</time>
      </trkpt>
      <trkpt lat="43.46692" lon="3.74744">
        <ele>64.73</ele>
        <time>2022-04-27T11:45:33.000Z</time>
      </trkpt>
      <trkpt lat="43.46694" lon="3.74751">
        <ele>65.73</ele>
        <time>2022-04-27T11:45:42.483Z</time>
      </trkpt>
      <trkpt lat="43.46695" lon="3.7476">
        <ele>65.98</ele>
        <time>2022-04-27T11:45:51.624Z</time>
      </trkpt>
      <trkpt lat="43.46699" lon="3.74773">
        <ele>65.73</ele>
        <time>2022-04-27T11:46:01.000Z</time>
      </trkpt>
      <trkpt lat="43.46701" lon="3.74783">
        <ele>66.73</ele>
        <time>2022-04-27T11:46:10.903Z</time>
      </trkpt>
      <trkpt lat="43.46706" lon="3.74799">
        <ele>66.73</ele>
        <time>2022-04-27T11:46:20.462Z</time>
      </trkpt>
      <trkpt lat="43.46711" lon="3.74815">
        <ele>67.73</ele>
        <time>2022-04-27T11:46:30.062Z</time>
      </trkpt>
      <trkpt lat="43.46713" lon="3.74824">
        <ele>68.73</ele>
        <time>2022-04-27T11:46:39.822Z</time>
      </trkpt>
      <trkpt lat="43.46716" lon="3.74834">
        <ele>69.72</ele>
        <time>2022-04-27T11:46:49.222Z</time>
      </trkpt>
      <trkpt lat="43.46718" lon="3.74846">
        <ele>70.73</ele>
        <time>2022-04-27T11:46:59.000Z</time>
      </trkpt>
      <trkpt lat="43.46719" lon="3.74854">
        <ele>69.8</ele>
        <time>2022-04-27T11:47:09.000Z</time>
      </trkpt>
      <trkpt lat="43.46719" lon="3.74858">
        <ele>69.73</ele>
        <time>2022-04-27T11:47:19.000Z</time>
      </trkpt>
      <trkpt lat="43.4672" lon="3.7486">
        <ele>68.73</ele>
        <time>2022-04-27T11:47:28.811Z</time>
      </trkpt>
      <trkpt lat="43.46724" lon="3.74866">
        <ele>68.72</ele>
        <time>2022-04-27T11:47:38.000Z</time>
      </trkpt>
      <trkpt lat="43.46725" lon="3.74865">
        <ele>68.73</ele>
        <time>2022-04-27T11:47:50.406Z</time>
      </trkpt>
      <trkpt lat="43.46721" lon="3.74863">
        <ele>68.73</ele>
        <time>2022-04-27T11:48:00.000Z</time>
      </trkpt>
      <trkpt lat="43.46721" lon="3.74864">
        <ele>68.73</ele>
        <time>2022-04-27T11:48:16.000Z</time>
      </trkpt>
      <trkpt lat="43.46722" lon="3.74866">
        <ele>71.73</ele>
        <time>2022-04-27T11:49:04.000Z</time>
      </trkpt>
      <trkpt lat="43.46724" lon="3.74884">
        <ele>71.73</ele>
        <time>2022-04-27T11:49:13.742Z</time>
      </trkpt>
      <trkpt lat="43.46728" lon="3.74896">
        <ele>72.73</ele>
        <time>2022-04-27T11:49:22.872Z</time>
      </trkpt>
      <trkpt lat="43.46734" lon="3.74907">
        <ele>73.73</ele>
        <time>2022-04-27T11:49:31.922Z</time>
      </trkpt>
      <trkpt lat="43.4673" lon="3.74914">
        <ele>73.73</ele>
        <time>2022-04-27T11:49:41.000Z</time>
      </trkpt>
      <trkpt lat="43.46721" lon="3.74912">
        <ele>74.73</ele>
        <time>2022-04-27T11:49:50.803Z</time>
      </trkpt>
      <trkpt lat="43.46713" lon="3.74914">
        <ele>76.48</ele>
        <time>2022-04-27T11:50:00.000Z</time>
      </trkpt>
      <trkpt lat="43.46704" lon="3.74917">
        <ele>76.73</ele>
        <time>2022-04-27T11:50:09.822Z</time>
      </trkpt>
      <trkpt lat="43.46696" lon="3.7492">
        <ele>77.73</ele>
        <time>2022-04-27T11:50:19.382Z</time>
      </trkpt>
      <trkpt lat="43.46687" lon="3.74921">
        <ele>78.73</ele>
        <time>2022-04-27T11:50:28.902Z</time>
      </trkpt>
      <trkpt lat="43.4668" lon="3.74923">
        <ele>80.72</ele>
        <time>2022-04-27T11:50:37.985Z</time>
      </trkpt>
      <trkpt lat="43.46673" lon="3.74926">
        <ele>82.48</ele>
        <time>2022-04-27T11:50:48.063Z</time>
      </trkpt>
      <trkpt lat="43.46667" lon="3.74934">
        <ele>83.67</ele>
        <time>2022-04-27T11:50:57.802Z</time>
      </trkpt>
      <trkpt lat="43.46659" lon="3.74929">
        <ele>83.73</ele>
        <time>2022-04-27T11:51:06.924Z</time>
      </trkpt>
      <trkpt lat="43.46651" lon="3.74931">
        <ele>85.67</ele>
        <time>2022-04-27T11:51:17.029Z</time>
      </trkpt>
      <trkpt lat="43.46643" lon="3.74935">
        <ele>86.73</ele>
        <time>2022-04-27T11:51:26.344Z</time>
      </trkpt>
      <trkpt lat="43.46639" lon="3.74928">
        <ele>86.73</ele>
        <time>2022-04-27T11:51:35.943Z</time>
      </trkpt>
      <trkpt lat="43.46638" lon="3.74927">
        <ele>85.98</ele>
        <time>2022-04-27T11:51:58.000Z</time>
      </trkpt>
      <trkpt lat="43.46637" lon="3.74926">
        <ele>85.73</ele>
        <time>2022-04-27T11:52:08.000Z</time>
      </trkpt>
      <trkpt lat="43.46637" lon="3.74927">
        <ele>86.73</ele>
        <time>2022-04-27T11:52:32.000Z</time>
      </trkpt>
      <trkpt lat="43.46638" lon="3.74927">
        <ele>86.73</ele>
        <time>2022-04-27T11:53:21.813Z</time>
      </trkpt>
      <trkpt lat="43.46639" lon="3.74926">
        <ele>86.74</ele>
        <time>2022-04-27T11:53:46.502Z</time>
      </trkpt>
      <trkpt lat="43.46627" lon="3.74921">
        <ele>87.73</ele>
        <time>2022-04-27T11:53:55.804Z</time>
      </trkpt>
      <trkpt lat="43.46622" lon="3.74921">
        <ele>86.73</ele>
        <time>2022-04-27T11:54:04.922Z</time>
      </trkpt>
      <trkpt lat="43.46621" lon="3.74921">
        <ele>87.73</ele>
        <time>2022-04-27T11:54:34.000Z</time>
      </trkpt>
      <trkpt lat="43.46609" lon="3.74917">
        <ele>88.73</ele>
        <time>2022-04-27T11:54:43.801Z</time>
      </trkpt>
      <trkpt lat="43.46599" lon="3.74915">
        <ele>88.73</ele>
        <time>2022-04-27T11:54:53.000Z</time>
      </trkpt>
      <trkpt lat="43.46588" lon="3.74914">
        <ele>88.98</ele>
        <time>2022-04-27T11:55:02.863Z</time>
      </trkpt>
      <trkpt lat="43.46579" lon="3.74914">
        <ele>89.73</ele>
        <time>2022-04-27T11:55:12.000Z</time>
      </trkpt>
      <trkpt lat="43.46569" lon="3.74909">
        <ele>90.73</ele>
        <time>2022-04-27T11:55:22.000Z</time>
      </trkpt>
      <trkpt lat="43.46559" lon="3.74913">
        <ele>91.73</ele>
        <time>2022-04-27T11:55:31.224Z</time>
      </trkpt>
      <trkpt lat="43.4655" lon="3.7491">
        <ele>91.73</ele>
        <time>2022-04-27T11:55:40.803Z</time>
      </trkpt>
      <trkpt lat="43.46539" lon="3.74908">
        <ele>92.73</ele>
        <time>2022-04-27T11:55:50.044Z</time>
      </trkpt>
      <trkpt lat="43.46528" lon="3.7491">
        <ele>92.73</ele>
        <time>2022-04-27T11:55:59.724Z</time>
      </trkpt>
      <trkpt lat="43.46517" lon="3.74909">
        <ele>93.73</ele>
        <time>2022-04-27T11:56:09.085Z</time>
      </trkpt>
      <trkpt lat="43.46507" lon="3.7491">
        <ele>94.73</ele>
        <time>2022-04-27T11:56:18.583Z</time>
      </trkpt>
      <trkpt lat="43.46496" lon="3.74907">
        <ele>94.48</ele>
        <time>2022-04-27T11:56:27.812Z</time>
      </trkpt>
      <trkpt lat="43.46486" lon="3.74907">
        <ele>94.73</ele>
        <time>2022-04-27T11:56:37.000Z</time>
      </trkpt>
      <trkpt lat="43.46476" lon="3.74907">
        <ele>93.97</ele>
        <time>2022-04-27T11:56:46.404Z</time>
      </trkpt>
      <trkpt lat="43.46468" lon="3.74904">
        <ele>94.72</ele>
        <time>2022-04-27T11:56:55.586Z</time>
      </trkpt>
      <trkpt lat="43.46457" lon="3.74906">
        <ele>93.74</ele>
        <time>2022-04-27T11:57:04.642Z</time>
      </trkpt>
      <trkpt lat="43.46446" lon="3.74906">
        <ele>93.73</ele>
        <time>2022-04-27T11:57:13.723Z</time>
      </trkpt>
      <trkpt lat="43.46435" lon="3.74905">
        <ele>94.73</ele>
        <time>2022-04-27T11:57:23.000Z</time>
      </trkpt>
      <trkpt lat="43.46425" lon="3.74907">
        <ele>93.74</ele>
        <time>2022-04-27T11:57:32.063Z</time>
      </trkpt>
      <trkpt lat="43.46416" lon="3.74912">
        <ele>92.74</ele>
        <time>2022-04-27T11:57:41.624Z</time>
      </trkpt>
      <trkpt lat="43.46406" lon="3.74907">
        <ele>93.67</ele>
        <time>2022-04-27T11:57:51.027Z</time>
      </trkpt>
      <trkpt lat="43.46398" lon="3.74912">
        <ele>94.49</ele>
        <time>2022-04-27T11:58:00.525Z</time>
      </trkpt>
      <trkpt lat="43.46395" lon="3.74921">
        <ele>94.74</ele>
        <time>2022-04-27T11:58:09.683Z</time>
      </trkpt>
      <trkpt lat="43.46392" lon="3.74924">
        <ele>95.75</ele>
        <time>2022-04-27T11:58:19.000Z</time>
      </trkpt>
      <trkpt lat="43.46385" lon="3.74922">
        <ele>95.75</ele>
        <time>2022-04-27T11:58:28.724Z</time>
      </trkpt>
      <trkpt lat="43.46376" lon="3.74918">
        <ele>96.74</ele>
        <time>2022-04-27T11:58:37.863Z</time>
      </trkpt>
      <trkpt lat="43.46368" lon="3.74909">
        <ele>96.74</ele>
        <time>2022-04-27T11:58:46.982Z</time>
      </trkpt>
      <trkpt lat="43.46358" lon="3.74903">
        <ele>95.75</ele>
        <time>2022-04-27T11:58:56.062Z</time>
      </trkpt>
      <trkpt lat="43.46349" lon="3.74897">
        <ele>95.74</ele>
        <time>2022-04-27T11:59:05.443Z</time>
      </trkpt>
      <trkpt lat="43.4634" lon="3.74894">
        <ele>94.99</ele>
        <time>2022-04-27T11:59:15.000Z</time>
      </trkpt>
      <trkpt lat="43.46333" lon="3.74892">
        <ele>93.74</ele>
        <time>2022-04-27T11:59:24.743Z</time>
      </trkpt>
      <trkpt lat="43.46322" lon="3.74892">
        <ele>90.99</ele>
        <time>2022-04-27T11:59:34.000Z</time>
      </trkpt>
      <trkpt lat="43.46313" lon="3.74893">
        <ele>89.8</ele>
        <time>2022-04-27T11:59:43.004Z</time>
      </trkpt>
      <trkpt lat="43.46307" lon="3.74895">
        <ele>89.74</ele>
        <time>2022-04-27T11:59:52.005Z</time>
      </trkpt>
      <trkpt lat="43.463" lon="3.74891">
        <ele>87.74</ele>
        <time>2022-04-27T12:00:01.362Z</time>
      </trkpt>
      <trkpt lat="43.46298" lon="3.74891">
        <ele>87.74</ele>
        <time>2022-04-27T12:00:10.863Z</time>
      </trkpt>
      <trkpt lat="43.46298" lon="3.74889">
        <ele>89.49</ele>
        <time>2022-04-27T12:01:30.000Z</time>
      </trkpt>
      <trkpt lat="43.46289" lon="3.74885">
        <ele>88.74</ele>
        <time>2022-04-27T12:01:39.922Z</time>
      </trkpt>
      <trkpt lat="43.46279" lon="3.74885">
        <ele>87.74</ele>
        <time>2022-04-27T12:01:49.965Z</time>
      </trkpt>
      <trkpt lat="43.46271" lon="3.74885">
        <ele>85.74</ele>
        <time>2022-04-27T12:01:59.032Z</time>
      </trkpt>
      <trkpt lat="43.46261" lon="3.74883">
        <ele>84.74</ele>
        <time>2022-04-27T12:02:08.562Z</time>
      </trkpt>
      <trkpt lat="43.46257" lon="3.74879">
        <ele>83.72</ele>
        <time>2022-04-27T12:02:18.000Z</time>
      </trkpt>
      <trkpt lat="43.46255" lon="3.74878">
        <ele>82.93</ele>
        <time>2022-04-27T12:02:27.849Z</time>
      </trkpt>
      <trkpt lat="43.46248" lon="3.74877">
        <ele>82.73</ele>
        <time>2022-04-27T12:02:37.062Z</time>
      </trkpt>
      <trkpt lat="43.46237" lon="3.74874">
        <ele>81.74</ele>
        <time>2022-04-27T12:02:46.841Z</time>
      </trkpt>
      <trkpt lat="43.46225" lon="3.74871">
        <ele>79.74</ele>
        <time>2022-04-27T12:02:56.030Z</time>
      </trkpt>
      <trkpt lat="43.46212" lon="3.7487">
        <ele>77.74</ele>
        <time>2022-04-27T12:03:05.764Z</time>
      </trkpt>
      <trkpt lat="43.462" lon="3.74873">
        <ele>75.74</ele>
        <time>2022-04-27T12:03:14.984Z</time>
      </trkpt>
      <trkpt lat="43.46189" lon="3.74873">
        <ele>75.74</ele>
        <time>2022-04-27T12:03:24.523Z</time>
      </trkpt>
      <trkpt lat="43.46182" lon="3.74875">
        <ele>74.74</ele>
        <time>2022-04-27T12:03:33.850Z</time>
      </trkpt>
      <trkpt lat="43.46178" lon="3.74879">
        <ele>74.74</ele>
        <time>2022-04-27T12:03:43.464Z</time>
      </trkpt>
      <trkpt lat="43.46178" lon="3.74882">
        <ele>76.74</ele>
        <time>2022-04-27T12:03:54.000Z</time>
      </trkpt>
      <trkpt lat="43.46177" lon="3.74883">
        <ele>75.75</ele>
        <time>2022-04-27T12:04:07.000Z</time>
      </trkpt>
      <trkpt lat="43.46168" lon="3.74882">
        <ele>74.97</ele>
        <time>2022-04-27T12:04:16.323Z</time>
      </trkpt>
      <trkpt lat="43.46165" lon="3.74878">
        <ele>74.74</ele>
        <time>2022-04-27T12:04:25.744Z</time>
      </trkpt>
      <trkpt lat="43.46154" lon="3.74879">
        <ele>73.74</ele>
        <time>2022-04-27T12:04:35.000Z</time>
      </trkpt>
      <trkpt lat="43.46143" lon="3.74875">
        <ele>72.74</ele>
        <time>2022-04-27T12:04:44.623Z</time>
      </trkpt>
      <trkpt lat="43.46136" lon="3.74873">
        <ele>71.74</ele>
        <time>2022-04-27T12:04:53.764Z</time>
      </trkpt>
      <trkpt lat="43.46129" lon="3.74872">
        <ele>69.8</ele>
        <time>2022-04-27T12:05:02.882Z</time>
      </trkpt>
      <trkpt lat="43.46117" lon="3.74869">
        <ele>67.99</ele>
        <time>2022-04-27T12:05:12.564Z</time>
      </trkpt>
      <trkpt lat="43.46106" lon="3.74867">
        <ele>66.99</ele>
        <time>2022-04-27T12:05:22.000Z</time>
      </trkpt>
      <trkpt lat="43.46093" lon="3.74867">
        <ele>64.74</ele>
        <time>2022-04-27T12:05:31.943Z</time>
      </trkpt>
      <trkpt lat="43.46083" lon="3.74868">
        <ele>63.74</ele>
        <time>2022-04-27T12:05:41.784Z</time>
      </trkpt>
      <trkpt lat="43.46072" lon="3.74868">
        <ele>62.74</ele>
        <time>2022-04-27T12:05:51.062Z</time>
      </trkpt>
      <trkpt lat="43.46068" lon="3.74871">
        <ele>61.75</ele>
        <time>2022-04-27T12:06:01.000Z</time>
      </trkpt>
      <trkpt lat="43.4606" lon="3.74872">
        <ele>59.8</ele>
        <time>2022-04-27T12:06:10.783Z</time>
      </trkpt>
      <trkpt lat="43.46051" lon="3.74879">
        <ele>59.74</ele>
        <time>2022-04-27T12:06:20.042Z</time>
      </trkpt>
      <trkpt lat="43.46044" lon="3.74893">
        <ele>60.74</ele>
        <time>2022-04-27T12:06:29.504Z</time>
      </trkpt>
      <trkpt lat="43.46044" lon="3.74895">
        <ele>60.74</ele>
        <time>2022-04-27T12:06:38.682Z</time>
      </trkpt>
      <trkpt lat="43.46044" lon="3.74901">
        <ele>59.74</ele>
        <time>2022-04-27T12:06:48.000Z</time>
      </trkpt>
      <trkpt lat="43.46045" lon="3.749">
        <ele>58.74</ele>
        <time>2022-04-27T12:07:12.000Z</time>
      </trkpt>
      <trkpt lat="43.46039" lon="3.74895">
        <ele>58.74</ele>
        <time>2022-04-27T12:07:21.123Z</time>
      </trkpt>
      <trkpt lat="43.46026" lon="3.74899">
        <ele>58.51</ele>
        <time>2022-04-27T12:07:30.465Z</time>
      </trkpt>
      <trkpt lat="43.46021" lon="3.74906">
        <ele>57.68</ele>
        <time>2022-04-27T12:07:39.886Z</time>
      </trkpt>
      <trkpt lat="43.46013" lon="3.74918">
        <ele>55.8</ele>
        <time>2022-04-27T12:07:49.063Z</time>
      </trkpt>
      <trkpt lat="43.46003" lon="3.74927">
        <ele>53.99</ele>
        <time>2022-04-27T12:07:58.743Z</time>
      </trkpt>
      <trkpt lat="43.45994" lon="3.74935">
        <ele>52.76</ele>
        <time>2022-04-27T12:08:08.000Z</time>
      </trkpt>
      <trkpt lat="43.45984" lon="3.74942">
        <ele>52.74</ele>
        <time>2022-04-27T12:08:17.483Z</time>
      </trkpt>
      <trkpt lat="43.45973" lon="3.74948">
        <ele>50.99</ele>
        <time>2022-04-27T12:08:26.584Z</time>
      </trkpt>
      <trkpt lat="43.45961" lon="3.74954">
        <ele>49.74</ele>
        <time>2022-04-27T12:08:35.982Z</time>
      </trkpt>
      <trkpt lat="43.4595" lon="3.74961">
        <ele>48.74</ele>
        <time>2022-04-27T12:08:45.343Z</time>
      </trkpt>
      <trkpt lat="43.45941" lon="3.74966">
        <ele>46.8</ele>
        <time>2022-04-27T12:08:54.892Z</time>
      </trkpt>
      <trkpt lat="43.4593" lon="3.74973">
        <ele>45.74</ele>
        <time>2022-04-27T12:09:04.722Z</time>
      </trkpt>
      <trkpt lat="43.4592" lon="3.74975">
        <ele>46.74</ele>
        <time>2022-04-27T12:09:13.753Z</time>
      </trkpt>
      <trkpt lat="43.45909" lon="3.74978">
        <ele>45.76</ele>
        <time>2022-04-27T12:09:23.063Z</time>
      </trkpt>
      <trkpt lat="43.45897" lon="3.74981">
        <ele>45.74</ele>
        <time>2022-04-27T12:09:32.604Z</time>
      </trkpt>
      <trkpt lat="43.45886" lon="3.74985">
        <ele>42.74</ele>
        <time>2022-04-27T12:09:41.643Z</time>
      </trkpt>
      <trkpt lat="43.45877" lon="3.74994">
        <ele>41.74</ele>
        <time>2022-04-27T12:09:50.889Z</time>
      </trkpt>
      <trkpt lat="43.45872" lon="3.75004">
        <ele>39.76</ele>
        <time>2022-04-27T12:09:59.913Z</time>
      </trkpt>
      <trkpt lat="43.45873" lon="3.75008">
        <ele>37.74</ele>
        <time>2022-04-27T12:10:09.000Z</time>
      </trkpt>
      <trkpt lat="43.45866" lon="3.75016">
        <ele>36.74</ele>
        <time>2022-04-27T12:10:18.502Z</time>
      </trkpt>
      <trkpt lat="43.45858" lon="3.75025">
        <ele>35.99</ele>
        <time>2022-04-27T12:10:27.504Z</time>
      </trkpt>
      <trkpt lat="43.45851" lon="3.75031">
        <ele>34.76</ele>
        <time>2022-04-27T12:10:36.901Z</time>
      </trkpt>
      <trkpt lat="43.45843" lon="3.75036">
        <ele>33</ele>
        <time>2022-04-27T12:10:46.000Z</time>
      </trkpt>
      <trkpt lat="43.45833" lon="3.75038">
        <ele>30.74</ele>
        <time>2022-04-27T12:10:55.385Z</time>
      </trkpt>
      <trkpt lat="43.45821" lon="3.75041">
        <ele>28.75</ele>
        <time>2022-04-27T12:11:05.062Z</time>
      </trkpt>
      <trkpt lat="43.45808" lon="3.75047">
        <ele>26.51</ele>
        <time>2022-04-27T12:11:14.664Z</time>
      </trkpt>
      <trkpt lat="43.45797" lon="3.75051">
        <ele>25.74</ele>
        <time>2022-04-27T12:11:23.684Z</time>
      </trkpt>
      <trkpt lat="43.45786" lon="3.75059">
        <ele>25.7</ele>
        <time>2022-04-27T12:11:32.764Z</time>
      </trkpt>
      <trkpt lat="43.45775" lon="3.7507">
        <ele>26.49</ele>
        <time>2022-04-27T12:11:42.703Z</time>
      </trkpt>
      <trkpt lat="43.45763" lon="3.75076">
        <ele>26.74</ele>
        <time>2022-04-27T12:11:52.063Z</time>
      </trkpt>
      <trkpt lat="43.45752" lon="3.75087">
        <ele>24.81</ele>
        <time>2022-04-27T12:12:01.805Z</time>
      </trkpt>
      <trkpt lat="43.45745" lon="3.75095">
        <ele>22.79</ele>
        <time>2022-04-27T12:12:10.962Z</time>
      </trkpt>
      <trkpt lat="43.45738" lon="3.75105">
        <ele>21.74</ele>
        <time>2022-04-27T12:12:20.144Z</time>
      </trkpt>
      <trkpt lat="43.45729" lon="3.75117">
        <ele>22.74</ele>
        <time>2022-04-27T12:12:29.763Z</time>
      </trkpt>
      <trkpt lat="43.45721" lon="3.75129">
        <ele>23.5</ele>
        <time>2022-04-27T12:12:39.000Z</time>
      </trkpt>
      <trkpt lat="43.45714" lon="3.75142">
        <ele>24.75</ele>
        <time>2022-04-27T12:12:48.684Z</time>
      </trkpt>
      <trkpt lat="43.45711" lon="3.75155">
        <ele>24.75</ele>
        <time>2022-04-27T12:12:57.762Z</time>
      </trkpt>
      <trkpt lat="43.45705" lon="3.7517">
        <ele>24.75</ele>
        <time>2022-04-27T12:13:07.000Z</time>
      </trkpt>
      <trkpt lat="43.45708" lon="3.75183">
        <ele>25.98</ele>
        <time>2022-04-27T12:13:17.000Z</time>
      </trkpt>
      <trkpt lat="43.45717" lon="3.75189">
        <ele>25.75</ele>
        <time>2022-04-27T12:13:26.364Z</time>
      </trkpt>
      <trkpt lat="43.45728" lon="3.75189">
        <ele>25.75</ele>
        <time>2022-04-27T12:13:35.443Z</time>
      </trkpt>
      <trkpt lat="43.4574" lon="3.75189">
        <ele>25.75</ele>
        <time>2022-04-27T12:13:44.544Z</time>
      </trkpt>
      <trkpt lat="43.4575" lon="3.7519">
        <ele>26.74</ele>
        <time>2022-04-27T12:13:53.763Z</time>
      </trkpt>
      <trkpt lat="43.4576" lon="3.75191">
        <ele>26.74</ele>
        <time>2022-04-27T12:14:02.890Z</time>
      </trkpt>
      <trkpt lat="43.45772" lon="3.75194">
        <ele>26.74</ele>
        <time>2022-04-27T12:14:12.000Z</time>
      </trkpt>
      <trkpt lat="43.45782" lon="3.75198">
        <ele>26.74</ele>
        <time>2022-04-27T12:14:22.343Z</time>
      </trkpt>
      <trkpt lat="43.45791" lon="3.75203">
        <ele>26.75</ele>
        <time>2022-04-27T12:14:31.364Z</time>
      </trkpt>
      <trkpt lat="43.45801" lon="3.75209">
        <ele>27.49</ele>
        <time>2022-04-27T12:14:41.033Z</time>
      </trkpt>
      <trkpt lat="43.45808" lon="3.75216">
        <ele>27.74</ele>
        <time>2022-04-27T12:14:50.045Z</time>
      </trkpt>
      <trkpt lat="43.45817" lon="3.75222">
        <ele>28.75</ele>
        <time>2022-04-27T12:14:59.602Z</time>
      </trkpt>
      <trkpt lat="43.45827" lon="3.75229">
        <ele>28.74</ele>
        <time>2022-04-27T12:15:08.664Z</time>
      </trkpt>
      <trkpt lat="43.45835" lon="3.75237">
        <ele>30.68</ele>
        <time>2022-04-27T12:15:18.000Z</time>
      </trkpt>
      <trkpt lat="43.45845" lon="3.75247">
        <ele>30.74</ele>
        <time>2022-04-27T12:15:27.882Z</time>
      </trkpt>
      <trkpt lat="43.45852" lon="3.75257">
        <ele>31.74</ele>
        <time>2022-04-27T12:15:37.683Z</time>
      </trkpt>
      <trkpt lat="43.45858" lon="3.75265">
        <ele>31.74</ele>
        <time>2022-04-27T12:15:46.892Z</time>
      </trkpt>
      <trkpt lat="43.45866" lon="3.75272">
        <ele>32.73</ele>
        <time>2022-04-27T12:15:56.422Z</time>
      </trkpt>
      <trkpt lat="43.45873" lon="3.75279">
        <ele>34.73</ele>
        <time>2022-04-27T12:16:05.704Z</time>
      </trkpt>
      <trkpt lat="43.45881" lon="3.75285">
        <ele>34.73</ele>
        <time>2022-04-27T12:16:15.000Z</time>
      </trkpt>
      <trkpt lat="43.45889" lon="3.75291">
        <ele>35.74</ele>
        <time>2022-04-27T12:16:24.683Z</time>
      </trkpt>
      <trkpt lat="43.45896" lon="3.75297">
        <ele>36.74</ele>
        <time>2022-04-27T12:16:34.000Z</time>
      </trkpt>
      <trkpt lat="43.45902" lon="3.75304">
        <ele>36.74</ele>
        <time>2022-04-27T12:16:43.683Z</time>
      </trkpt>
      <trkpt lat="43.4591" lon="3.7531">
        <ele>36.93</ele>
        <time>2022-04-27T12:16:53.000Z</time>
      </trkpt>
      <trkpt lat="43.45917" lon="3.75315">
        <ele>38.74</ele>
        <time>2022-04-27T12:17:02.802Z</time>
      </trkpt>
      <trkpt lat="43.45922" lon="3.75319">
        <ele>40.73</ele>
        <time>2022-04-27T12:17:11.963Z</time>
      </trkpt>
      <trkpt lat="43.45928" lon="3.75326">
        <ele>41.74</ele>
        <time>2022-04-27T12:17:21.703Z</time>
      </trkpt>
      <trkpt lat="43.45933" lon="3.75334">
        <ele>41.99</ele>
        <time>2022-04-27T12:17:31.000Z</time>
      </trkpt>
      <trkpt lat="43.45936" lon="3.75345">
        <ele>41.74</ele>
        <time>2022-04-27T12:17:40.703Z</time>
      </trkpt>
      <trkpt lat="43.4594" lon="3.75357">
        <ele>41.74</ele>
        <time>2022-04-27T12:17:50.000Z</time>
      </trkpt>
      <trkpt lat="43.45943" lon="3.75372">
        <ele>42.55</ele>
        <time>2022-04-27T12:17:59.923Z</time>
      </trkpt>
      <trkpt lat="43.45947" lon="3.75384">
        <ele>41.74</ele>
        <time>2022-04-27T12:18:09.594Z</time>
      </trkpt>
      <trkpt lat="43.4595" lon="3.75395">
        <ele>40.74</ele>
        <time>2022-04-27T12:18:19.025Z</time>
      </trkpt>
      <trkpt lat="43.45952" lon="3.75406">
        <ele>39.74</ele>
        <time>2022-04-27T12:18:28.043Z</time>
      </trkpt>
      <trkpt lat="43.45957" lon="3.75419">
        <ele>38.74</ele>
        <time>2022-04-27T12:18:37.743Z</time>
      </trkpt>
      <trkpt lat="43.4596" lon="3.75434">
        <ele>36.81</ele>
        <time>2022-04-27T12:18:48.000Z</time>
      </trkpt>
      <trkpt lat="43.45966" lon="3.75442">
        <ele>35.93</ele>
        <time>2022-04-27T12:18:58.000Z</time>
      </trkpt>
      <trkpt lat="43.4597" lon="3.7546">
        <ele>35.75</ele>
        <time>2022-04-27T12:19:07.643Z</time>
      </trkpt>
      <trkpt lat="43.45974" lon="3.75476">
        <ele>36.68</ele>
        <time>2022-04-27T12:19:16.771Z</time>
      </trkpt>
      <trkpt lat="43.45979" lon="3.75488">
        <ele>36.74</ele>
        <time>2022-04-27T12:19:25.963Z</time>
      </trkpt>
      <trkpt lat="43.45979" lon="3.755">
        <ele>36.81</ele>
        <time>2022-04-27T12:19:35.892Z</time>
      </trkpt>
      <trkpt lat="43.45975" lon="3.75514">
        <ele>38.68</ele>
        <time>2022-04-27T12:19:44.895Z</time>
      </trkpt>
      <trkpt lat="43.45974" lon="3.7553">
        <ele>38.49</ele>
        <time>2022-04-27T12:19:54.043Z</time>
      </trkpt>
      <trkpt lat="43.45972" lon="3.75545">
        <ele>37.74</ele>
        <time>2022-04-27T12:20:03.683Z</time>
      </trkpt>
      <trkpt lat="43.45969" lon="3.75558">
        <ele>37.74</ele>
        <time>2022-04-27T12:20:12.902Z</time>
      </trkpt>
      <trkpt lat="43.45964" lon="3.7557">
        <ele>36.74</ele>
        <time>2022-04-27T12:20:21.963Z</time>
      </trkpt>
      <trkpt lat="43.45957" lon="3.75582">
        <ele>36.74</ele>
        <time>2022-04-27T12:20:31.000Z</time>
      </trkpt>
      <trkpt lat="43.45949" lon="3.75597">
        <ele>35.74</ele>
        <time>2022-04-27T12:20:40.902Z</time>
      </trkpt>
      <trkpt lat="43.45941" lon="3.75602">
        <ele>34.81</ele>
        <time>2022-04-27T12:20:50.000Z</time>
      </trkpt>
      <trkpt lat="43.45931" lon="3.75599">
        <ele>36.68</ele>
        <time>2022-04-27T12:21:00.000Z</time>
      </trkpt>
      <trkpt lat="43.4592" lon="3.75596">
        <ele>37.74</ele>
        <time>2022-04-27T12:21:09.305Z</time>
      </trkpt>
      <trkpt lat="43.45909" lon="3.75593">
        <ele>36.74</ele>
        <time>2022-04-27T12:21:18.684Z</time>
      </trkpt>
      <trkpt lat="43.45899" lon="3.75588">
        <ele>37.74</ele>
        <time>2022-04-27T12:21:27.923Z</time>
      </trkpt>
      <trkpt lat="43.45891" lon="3.75579">
        <ele>37.74</ele>
        <time>2022-04-27T12:21:37.004Z</time>
      </trkpt>
      <trkpt lat="43.45884" lon="3.75569">
        <ele>38.74</ele>
        <time>2022-04-27T12:21:46.043Z</time>
      </trkpt>
      <trkpt lat="43.45877" lon="3.75568">
        <ele>37.74</ele>
        <time>2022-04-27T12:21:56.000Z</time>
      </trkpt>
      <trkpt lat="43.45878" lon="3.75569">
        <ele>37.74</ele>
        <time>2022-04-27T12:22:16.000Z</time>
      </trkpt>
      <trkpt lat="43.45876" lon="3.75569">
        <ele>37.74</ele>
        <time>2022-04-27T12:22:26.000Z</time>
      </trkpt>
      <trkpt lat="43.45876" lon="3.75569">
        <ele>34.75</ele>
        <time>2022-04-27T12:22:46.000Z</time>
        <extensions>
          <visugpx:TrkExtension xmlns:visugpx="https://www.visugpx.com/editgpx/">
            <visugpx:node>1</visugpx:node>
            </visugpx:TrkExtension>
        </extensions>
      </trkpt>
    </trkseg>
  </trk>
</gpx>